Data for 08/21/2009

Time Sea-Level Adjusted Pressure Absolute Pressure Temperature Relative Humidity Dew Point Precipitation   
(mb) (inHg) (mb) (inHg) (C) (F) (%) (C) (F) (mm) (in)
00:01 1023 30.21 852 25.16 18.2 64.7 48 7.1 44.8 18.56 0.731
00:02 1023 30.21 852 25.16 18.2 64.7 48 7.2 45 18.5 0.728
00:03 1023 30.21 852 25.16 18.1 64.6 48 7.2 44.9 18.46 0.727
00:04 1023 30.21 852 25.16 18.1 64.5 48 7.1 44.9 18.42 0.725
00:05 1023 30.21 852 25.16 18.1 64.5 48 7.1 44.8 18.43 0.726
00:06 1023 30.21 852 25.16 18.1 64.7 48 7 44.6 18.49 0.728
00:07 1023 30.21 852 25.16 18.1 64.7 48 7 44.7 18.48 0.728
00:08 1023 30.21 852 25.16 18.1 64.5 48 7 44.6 18.42 0.725
00:09 1023 30.21 852 25.16 18.1 64.5 48 7 44.7 18.42 0.725
00:10 1023 30.21 852 25.16 18 64.3 48 7 44.6 18.34 0.722
00:11 1023 30.21 852 25.16 18 64.3 49 7.1 44.7 18.33 0.722
00:12 1023 30.21 852 25.16 18 64.3 49 7.1 44.8 18.34 0.722
00:13 1023 30.21 852 25.16 17.9 64.3 49 7.1 44.8 18.27 0.719
00:14 1023 30.21 852 25.16 17.9 64.1 49 7.2 45 18.2 0.717
00:15 1023 30.21 852 25.16 17.8 64.1 49 7.2 44.9 18.17 0.715
00:16 1023 30.21 852 25.16 17.8 64.1 49 7.1 44.9 18.1 0.713
00:17 1023 30.21 852 25.16 17.8 64.1 49 7.2 44.9 18.16 0.715
00:18 1023 30.21 852 25.16 17.8 64 49 6.9 44.4 18.18 0.716
00:19 1023 30.21 852 25.16 17.8 64.1 49 7.1 44.8 18.25 0.719
00:20 1023 30.21 852 25.16 17.9 64.1 49 7.1 44.8 18.19 0.716
00:21 1023 30.21 852 25.16 17.8 64.1 49 7 44.6 18.15 0.715
00:22 1023 30.21 852 25.16 17.8 64.1 49 7.2 44.9 18.17 0.715
00:23 1023 30.21 852 25.16 17.8 64 49 7.1 44.7 18.14 0.714
00:24 1023 30.21 852 25.16 17.8 64 49 7 44.6 18.13 0.714
00:25 1023 30.21 852 25.16 17.8 64 49 7 44.6 18.19 0.716
00:26 1023 30.21 852 25.16 17.8 64.1 49 7 44.6 18.22 0.717
00:27 1023 30.21 852 25.16 17.9 64.2 49 7.1 44.8 18.27 0.719
00:28 1023 30.21 852 25.16 17.9 64.2 49 7 44.7 18.24 0.718
00:29 1023 30.21 852 25.16 17.9 64.1 48 6.9 44.5 18.28 0.72
00:30 1023 30.21 852 25.16 17.9 64.2 49 7.1 44.8 18.29 0.72
00:31 1023 30.21 852 25.16 17.9 64.1 49 7.1 44.7 18.21 0.717
00:32 1023 30.21 852 25.16 17.9 64.2 49 7.1 44.7 18.26 0.719
00:33 1023 30.21 852 25.16 17.9 64.2 49 7.1 44.8 18.23 0.718
00:34 1023 30.21 852 25.16 17.9 64.1 49 7.1 44.8 18.19 0.716
00:35 1023 30.21 852 25.16 17.9 64.2 48 7 44.6 18.18 0.716
00:36 1023 30.21 852 25.16 17.9 64.2 48 6.9 44.5 18.19 0.716
00:37 1023 30.21 852 25.16 17.8 64.1 49 7.1 44.8 18.21 0.717
00:38 1023 30.21 852 25.16 17.8 64 49 6.9 44.4 18.16 0.715
00:39 1023 30.21 852 25.16 17.8 64.1 49 7 44.7 18.2 0.717
00:40 1023 30.21 852 25.16 17.8 64.1 48 6.9 44.3 18.19 0.716
00:41 1023 30.21 852 25.16 17.9 64.2 49 7 44.6 18.21 0.717
00:42 1023 30.21 852 25.16 17.9 64.2 49 7.1 44.7 18.23 0.718
00:43 1023 30.21 852 25.16 17.8 64 49 7 44.6 18.17 0.715
00:44 1023 30.21 852 25.16 17.8 64.1 49 7.1 44.8 18.11 0.713
00:45 1023 30.21 852 25.16 17.8 64.1 48 6.9 44.4 18.15 0.715
00:46 1023 30.21 852 25.16 17.8 64 48 6.8 44.2 18.16 0.715
00:47 1023 30.21 852 25.16 17.9 64.1 49 7 44.6 18.23 0.718
00:48 1023 30.21 852 25.16 17.9 64.1 49 7.1 44.8 18.21 0.717
00:49 1023 30.21 852 25.16 17.8 64.1 48 6.9 44.4 18.14 0.714
00:50 1023 30.21 852 25.16 17.8 64 49 6.9 44.4 18.12 0.713
00:51 1023 30.21 852 25.16 17.8 64 49 7.1 44.8 18.09 0.712
00:52 1023 30.21 852 25.16 17.7 63.9 49 7 44.6 18.04 0.71
00:53 1023 30.21 852 25.16 17.7 63.9 49 7.1 44.8 18.08 0.712
00:54 1023 30.21 852 25.16 17.6 63.8 49 7 44.7 17.97 0.707
00:55 1023 30.21 852 25.16 17.6 63.7 49 6.9 44.5 17.99 0.708
00:56 1023 30.21 852 25.16 17.7 63.8 49 6.8 44.3 18.07 0.711
00:57 1023 30.21 852 25.16 17.8 64 49 7 44.7 18.12 0.713
00:58 1023 30.21 852 25.16 17.7 63.9 49 7 44.5 18.08 0.712
00:59 1023 30.21 852 25.16 17.7 63.9 49 7 44.6 18.09 0.712
01:00 1023 30.21 852 25.16 17.7 63.8 49 7 44.5 18.03 0.71
01:01 1023 30.21 852 25.16 17.7 63.8 49 7 44.6 17.99 0.708
01:02 1023 30.21 852 25.16 17.6 63.7 50 7.1 44.8 18.01 0.709
01:03 1023 30.21 852 25.16 17.6 63.6 50 7 44.7 17.93 0.706
01:04 1023 30.21 852 25.16 17.5 63.6 50 7.1 44.7 17.88 0.704
01:05 1023 30.21 852 25.16 17.5 63.5 49 6.9 44.4 17.89 0.704
01:06 1023 30.21 852 25.16 17.5 63.5 49 6.8 44.3 17.85 0.703
01:07 1023 30.21 852 25.16 17.5 63.5 49 6.9 44.3 17.86 0.703
01:08 1023 30.21 852 25.16 17.5 63.6 50 7.1 44.8 17.88 0.704
01:09 1023 30.21 853 25.19 17.5 63.4 50 7.1 44.7 17.79 0.7
01:10 1023 30.21 853 25.19 17.4 63.2 50 7 44.6 17.71 0.697
01:11 1023 30.21 853 25.19 17.3 63.2 50 7 44.6 17.69 0.696
01:12 1023 30.21 853 25.19 17.3 63.2 51 7.1 44.8 17.71 0.697
01:13 1023 30.21 852 25.16 17.3 63.2 50 7.1 44.7 17.71 0.697
01:14 1023 30.21 852 25.16 17.3 63.2 51 7.1 44.8 17.66 0.695
01:15 1023 30.21 853 25.19 17.3 63.1 50 7 44.5 17.66 0.695
01:16 1023 30.21 853 25.19 17.3 63.2 50 7 44.6 17.65 0.695
01:17 1023 30.21 853 25.19 17.3 63.1 50 6.9 44.4 17.64 0.694
01:18 1023 30.21 853 25.19 17.3 63.1 50 7 44.6 17.67 0.696
01:19 1023 30.21 853 25.19 17.3 63.1 51 7.1 44.9 17.56 0.691
01:20 1023 30.21 853 25.19 17.2 63 51 7 44.6 17.56 0.691
01:21 1023 30.21 853 25.19 17.2 62.9 51 7.1 44.9 17.52 0.69
01:22 1023 30.21 853 25.19 17.1 62.7 52 7.1 44.9 17.4 0.685
01:23 1023 30.21 853 25.19 17 62.6 51 7 44.7 17.33 0.682
01:24 1023 30.21 853 25.19 17 62.6 52 7.1 44.7 17.34 0.683
01:25 1023 30.21 853 25.19 17 62.6 50 6.7 44.1 17.4 0.685
01:26 1023 30.21 853 25.19 17.2 62.9 51 7 44.6 17.51 0.689
01:27 1023 30.21 853 25.19 17.1 62.8 51 6.9 44.4 17.46 0.687
01:28 1023 30.21 853 25.19 17.2 62.9 50 6.9 44.4 17.51 0.689
01:29 1023 30.21 853 25.19 17.1 62.9 50 6.8 44.2 17.53 0.69
01:30 1023 30.21 853 25.19 17.2 62.9 51 7 44.6 17.56 0.691
01:31 1023 30.21 853 25.19 17.2 62.9 50 6.8 44.2 17.53 0.69
01:32 1023 30.21 853 25.19 17.2 62.9 50 6.7 44.1 17.53 0.69
01:33 1023 30.21 853 25.19 17.2 62.9 51 7 44.6 17.51 0.689
01:34 1023 30.21 853 25.19 17.1 62.7 51 7 44.6 17.43 0.686
01:35 1023 30.21 853 25.19 17 62.6 51 6.9 44.4 17.36 0.683
01:36 1023 30.21 853 25.19 17 62.6 51 6.9 44.4 17.35 0.683
01:37 1023 30.21 853 25.19 17 62.5 51 6.7 44.1 17.33 0.682
01:38 1023 30.21 853 25.19 17 62.6 50 6.7 44.1 17.4 0.685
01:39 1023 30.21 853 25.19 17.1 62.8 50 6.8 44.3 17.44 0.687
01:40 1023 30.21 853 25.19 17.1 62.7 51 6.9 44.4 17.39 0.685
01:41 1023 30.21 853 25.19 17 62.7 50 6.6 43.8 17.42 0.686
01:42 1024 30.24 853 25.19 17.1 62.8 50 6.9 44.4 17.42 0.686
01:43 1023 30.21 853 25.19 17.1 62.7 50 6.8 44.2 17.39 0.685
01:44 1023 30.21 853 25.19 17.1 62.7 50 6.6 43.9 17.4 0.685
01:45 1024 30.24 853 25.19 17.1 62.7 50 6.7 44 17.4 0.685
01:46 1023 30.21 853 25.19 17 62.6 51 6.9 44.4 17.39 0.685
01:47 1024 30.24 853 25.19 17 62.6 50 6.8 44.2 17.33 0.682
01:48 1024 30.24 853 25.19 17 62.5 51 6.7 44.1 17.31 0.681
01:49 1023 30.21 853 25.19 16.9 62.5 51 6.7 44.1 17.28 0.68
01:50 1024 30.24 853 25.19 16.9 62.5 51 6.8 44.2 17.3 0.681
01:51 1023 30.21 853 25.19 17 62.5 51 6.7 44.1 17.3 0.681
01:52 1023 30.21 853 25.19 16.9 62.4 51 6.8 44.3 17.25 0.679
01:53 1023 30.21 853 25.19 16.8 62.3 51 6.7 44.1 17.19 0.677
01:54 1023 30.21 853 25.19 16.8 62.3 51 6.8 44.2 17.18 0.676
01:55 1023 30.21 853 25.19 16.9 62.3 51 6.7 44.1 17.26 0.68
01:56 1023 30.21 853 25.19 16.9 62.5 50 6.7 44 17.27 0.68
01:57 1023 30.21 853 25.19 16.9 62.5 51 6.8 44.2 17.32 0.682
01:58 1023 30.21 853 25.19 16.9 62.4 51 6.7 44 17.22 0.678
01:59 1023 30.21 853 25.19 16.9 62.3 51 6.7 44.1 17.18 0.676
02:00 1023 30.21 853 25.19 16.9 62.4 51 6.7 44.1 17.22 0.678
02:01 1023 30.21 853 25.19 16.9 62.4 51 6.7 44.1 17.24 0.679
02:02 1023 30.21 853 25.19 16.9 62.3 51 6.8 44.2 17.26 0.68
02:03 1023 30.21 853 25.19 16.9 62.4 51 6.8 44.2 17.22 0.678
02:04 1023 30.21 853 25.19 16.8 62.3 51 6.8 44.2 17.2 0.677
02:05 1023 30.21 853 25.19 16.8 62.2 52 6.8 44.3 17.17 0.676
02:06 1023 30.21 853 25.19 16.7 62.1 52 6.8 44.3 17.07 0.672
02:07 1023 30.21 853 25.19 16.7 62 52 6.9 44.4 16.99 0.669
02:08 1023 30.21 853 25.19 16.6 61.9 52 6.8 44.2 16.93 0.667
02:09 1023 30.21 853 25.19 16.6 61.8 52 6.7 44.1 16.89 0.665
02:10 1023 30.21 853 25.19 16.6 61.8 52 6.7 44 16.93 0.667
02:11 1023 30.21 853 25.19 16.7 62 51 6.7 44 17.04 0.671
02:12 1023 30.21 853 25.19 16.7 62 52 6.9 44.5 17.05 0.671
02:13 1023 30.21 853 25.19 16.6 61.9 51 6.6 43.9 17.01 0.67
02:14 1023 30.21 853 25.19 16.7 62 52 6.8 44.2 17.05 0.671
02:15 1023 30.21 853 25.19 16.6 61.9 52 6.8 44.3 16.98 0.669
02:16 1023 30.21 853 25.19 16.6 61.8 52 6.7 44.1 16.94 0.667
02:17 1023 30.21 853 25.19 16.6 61.8 52 6.8 44.3 16.95 0.667
02:18 1023 30.21 853 25.19 16.6 61.8 52 6.8 44.2 16.94 0.667
02:19 1023 30.21 853 25.19 16.6 61.8 52 6.7 44.1 16.95 0.667
02:20 1023 30.21 853 25.19 16.5 61.8 52 6.9 44.4 16.9 0.665
02:21 1023 30.21 853 25.19 16.5 61.7 52 6.8 44.2 16.85 0.663
02:22 1023 30.21 853 25.19 16.5 61.8 52 6.8 44.3 16.89 0.665
02:23 1023 30.21 853 25.19 16.5 61.7 52 6.7 44.1 16.84 0.663
02:24 1023 30.21 853 25.19 16.5 61.7 52 6.8 44.2 16.88 0.665
02:25 1023 30.21 853 25.19 16.5 61.7 52 6.8 44.3 16.87 0.664
02:26 1023 30.21 853 25.19 16.5 61.6 52 6.7 44.1 16.8 0.661
02:27 1023 30.21 853 25.19 16.5 61.6 52 6.7 44 16.81 0.662
02:28 1023 30.21 853 25.19 16.4 61.6 52 6.7 44.1 16.81 0.662
02:29 1023 30.21 853 25.19 16.5 61.6 53 6.8 44.3 16.78 0.661
02:30 1023 30.21 853 25.19 16.4 61.5 53 6.8 44.3 16.71 0.658
02:31 1023 30.21 853 25.19 16.4 61.5 52 6.7 44 16.74 0.659
02:32 1023 30.21 853 25.19 16.4 61.6 52 6.7 44.1 16.78 0.661
02:33 1023 30.21 853 25.19 16.5 61.6 52 6.7 44.1 16.76 0.66
02:34 1023 30.21 853 25.19 16.4 61.5 53 6.8 44.3 16.77 0.66
02:35 1023 30.21 853 25.19 16.3 61.4 53 6.7 44 16.67 0.656
02:36 1023 30.21 853 25.19 16.3 61.3 53 6.8 44.3 16.67 0.656
02:37 1023 30.21 853 25.19 16.2 61.2 53 6.7 44 16.57 0.652
02:38 1023 30.21 853 25.19 16.3 61.3 52 6.6 43.9 16.63 0.655
02:39 1023 30.21 853 25.19 16.3 61.4 53 6.7 44 16.67 0.656
02:40 1023 30.21 853 25.19 16.3 61.3 53 6.8 44.2 16.65 0.656
02:41 1023 30.21 853 25.19 16.3 61.3 53 6.7 44 16.63 0.655
02:42 1023 30.21 853 25.19 16.3 61.3 53 6.7 44 16.67 0.656
02:43 1023 30.21 853 25.19 16.3 61.3 53 6.7 44 16.66 0.656
02:44 1023 30.21 853 25.19 16.3 61.3 53 6.7 44.1 16.62 0.654
02:45 1024 30.24 853 25.19 16.2 61.2 54 6.9 44.4 16.57 0.652
02:46 1023 30.21 853 25.19 16.2 61.1 53 6.7 44.1 16.51 0.65
02:47 1024 30.24 853 25.19 16.2 61.1 54 6.9 44.5 16.47 0.648
02:48 1024 30.24 853 25.19 16.1 60.9 54 6.7 44.1 16.41 0.646
02:49 1024 30.24 853 25.19 16.1 60.9 54 6.8 44.2 16.49 0.649
02:50 1024 30.24 853 25.19 16.1 61 54 6.8 44.3 16.45 0.648
02:51 1024 30.24 853 25.19 16.1 60.9 53 6.7 44.1 16.37 0.644
02:52 1024 30.24 853 25.19 16 60.9 54 6.7 44.1 16.4 0.646
02:53 1024 30.24 853 25.19 16 60.8 54 6.8 44.3 16.36 0.644
02:54 1024 30.24 853 25.19 15.9 60.7 54 6.7 44.1 16.31 0.642
02:55 1024 30.24 853 25.19 15.9 60.7 53 6.6 43.8 16.3 0.642
02:56 1024 30.24 853 25.19 16 60.8 53 6.6 44 16.38 0.645
02:57 1024 30.24 853 25.19 16 60.8 53 6.6 43.9 16.35 0.644
02:58 1024 30.24 853 25.19 16 60.9 54 6.8 44.2 16.36 0.644
02:59 1024 30.24 853 25.19 15.9 60.7 54 6.7 44 16.29 0.641
03:00 1024 30.24 853 25.19 15.9 60.7 54 6.7 44 16.28 0.641
03:01 1024 30.24 853 25.19 15.9 60.6 53 6.5 43.8 16.32 0.643
03:02 1024 30.24 853 25.19 16 60.7 54 6.7 44 16.28 0.641
03:03 1024 30.24 853 25.19 15.9 60.6 54 6.7 44 16.29 0.641
03:04 1024 30.24 853 25.19 15.9 60.7 54 6.6 43.9 16.29 0.641
03:05 1024 30.24 853 25.19 16 60.7 54 6.7 44.1 16.34 0.643
03:06 1024 30.24 853 25.19 15.9 60.5 54 6.7 44.1 16.21 0.638
03:07 1024 30.24 853 25.19 15.8 60.4 54 6.7 44.1 16.15 0.636
03:08 1024 30.24 853 25.19 15.8 60.4 54 6.6 43.9 16.12 0.635
03:09 1024 30.24 853 25.19 15.8 60.4 55 6.8 44.3 16.12 0.635
03:10 1024 30.24 853 25.19 15.7 60.2 55 6.7 44.1 15.98 0.629
03:11 1024 30.24 853 25.19 15.6 60 55 6.7 44.1 15.94 0.628
03:12 1024 30.24 853 25.19 15.5 59.9 55 6.7 44 15.86 0.624
03:13 1024 30.24 853 25.19 15.5 59.8 55 6.6 43.9 15.82 0.623
03:14 1024 30.24 853 25.19 15.5 59.9 55 6.5 43.8 15.91 0.626
03:15 1024 30.24 853 25.19 15.6 60.1 54 6.5 43.7 15.98 0.629
03:16 1024 30.24 853 25.19 15.6 60.1 55 6.6 43.9 15.97 0.629
03:17 1024 30.24 853 25.19 15.6 60.1 55 6.7 44 15.93 0.627
03:18 1024 30.24 853 25.19 15.5 60 55 6.6 43.8 15.9 0.626
03:19 1024 30.24 853 25.19 15.6 60.1 54 6.4 43.6 15.94 0.628
03:20 1024 30.24 853 25.19 15.6 60.1 55 6.7 44 15.98 0.629
03:21 1024 30.24 853 25.19 15.6 60 55 6.6 43.8 15.9 0.626
03:22 1024 30.24 853 25.19 15.6 60 55 6.6 43.8 15.91 0.626
03:23 1024 30.24 853 25.19 15.6 60 55 6.6 44 15.94 0.628
03:24 1024 30.24 853 25.19 15.5 59.9 55 6.6 43.8 15.86 0.624
03:25 1024 30.24 853 25.19 15.5 59.8 55 6.6 43.9 15.84 0.624
03:26 1024 30.24 853 25.19 15.4 59.7 55 6.6 43.9 15.73 0.619
03:27 1024 30.24 853 25.19 15.3 59.6 56 6.6 43.9 15.67 0.617
03:28 1024 30.24 853 25.19 15.3 59.6 55 6.4 43.6 15.71 0.619
03:29 1024 30.24 853 25.19 15.4 59.7 55 6.5 43.7 15.74 0.62
03:30 1024 30.24 853 25.19 15.4 59.8 56 6.7 44 15.71 0.619
03:31 1024 30.24 853 25.19 15.3 59.6 55 6.4 43.5 15.71 0.619
03:32 1024 30.24 853 25.19 15.4 59.7 55 6.4 43.6 15.79 0.622
03:33 1024 30.24 853 25.19 15.4 59.7 56 6.7 44 15.8 0.622
03:34 1024 30.24 853 25.19 15.3 59.6 56 6.6 43.8 15.69 0.618
03:35 1024 30.24 853 25.19 15.3 59.5 55 6.5 43.7 15.58 0.613
03:36 1024 30.24 853 25.19 15.2 59.3 56 6.5 43.8 15.53 0.611
03:37 1023 30.21 853 25.19 15.2 59.3 56 6.4 43.5 15.51 0.611
03:38 1024 30.24 853 25.19 15.2 59.3 55 6.4 43.6 15.54 0.612
03:39 1023 30.21 853 25.19 15.2 59.3 56 6.4 43.6 15.52 0.611
03:40 1023 30.21 853 25.19 15.2 59.3 55 6.4 43.5 15.51 0.611
03:41 1023 30.21 853 25.19 15.2 59.4 55 6.4 43.5 15.54 0.612
03:42 1023 30.21 853 25.19 15.2 59.4 55 6.4 43.5 15.59 0.614
03:43 1023 30.21 853 25.19 15.2 59.4 56 6.6 43.8 15.55 0.612
03:44 1023 30.21 853 25.19 15.2 59.3 56 6.4 43.6 15.53 0.611
03:45 1023 30.21 853 25.19 15.1 59.2 56 6.5 43.8 15.5 0.61
03:46 1023 30.21 853 25.19 15.1 59.1 56 6.5 43.7 15.42 0.607
03:47 1023 30.21 853 25.19 15 59 57 6.7 44 15.34 0.604
03:48 1023 30.21 853 25.19 14.9 58.9 56 6.4 43.5 15.33 0.604
03:49 1023 30.21 853 25.19 15 59 56 6.3 43.4 15.41 0.607
03:50 1023 30.21 852 25.16 15 59 56 6.4 43.6 15.39 0.606
03:51 1023 30.21 853 25.19 15 59 56 6.4 43.6 15.38 0.606
03:52 1023 30.21 853 25.19 15 58.9 56 6.4 43.6 15.32 0.603
03:53 1023 30.21 853 25.19 14.9 58.8 56 6.3 43.3 15.28 0.602
03:54 1023 30.21 852 25.16 14.9 58.9 57 6.4 43.6 15.28 0.602
03:55 1023 30.21 852 25.16 14.9 58.8 57 6.4 43.6 15.25 0.6
03:56 1023 30.21 853 25.19 14.8 58.7 57 6.5 43.6 15.22 0.599
03:57 1023 30.21 852 25.16 14.8 58.6 56 6.2 43.2 15.14 0.596
03:58 1023 30.21 852 25.16 14.8 58.6 57 6.4 43.5 15.19 0.598
03:59 1023 30.21 852 25.16 14.8 58.6 56 6.2 43.2 15.15 0.596
04:00 1023 30.21 852 25.16 14.8 58.6 57 6.3 43.4 15.14 0.596
04:01 1023 30.21 852 25.16 14.8 58.6 57 6.3 43.4 15.13 0.596
04:02 1023 30.21 852 25.16 14.8 58.6 57 6.3 43.4 15.11 0.595
04:03 1023 30.21 852 25.16 14.7 58.5 57 6.3 43.3 15.11 0.595
04:04 1023 30.21 852 25.16 14.7 58.5 57 6.3 43.4 15.08 0.594
04:05 1023 30.21 852 25.16 14.7 58.4 57 6.4 43.5 15.07 0.593
04:06 1023 30.21 852 25.16 14.7 58.4 57 6.3 43.3 14.98 0.59
04:07 1023 30.21 852 25.16 14.6 58.4 57 6.2 43.1 15 0.591
04:08 1023 30.21 852 25.16 14.7 58.4 57 6.2 43.2 15.05 0.593
04:09 1023 30.21 852 25.16 14.7 58.4 57 6.3 43.3 15.03 0.592
04:10 1023 30.21 852 25.16 14.7 58.4 56 6.2 43.1 15.01 0.591
04:11 1023 30.21 852 25.16 14.7 58.5 57 6.2 43.2 15.09 0.594
04:12 1023 30.21 852 25.16 14.8 58.6 56 6.3 43.3 15.11 0.595
04:13 1023 30.21 852 25.16 14.7 58.5 57 6.3 43.3 15.04 0.592
04:14 1023 30.21 852 25.16 14.6 58.3 56 6.1 43 15 0.591
04:15 1023 30.21 852 25.16 14.7 58.4 57 6.2 43.2 15.06 0.593
04:16 1023 30.21 852 25.16 14.7 58.4 57 6.3 43.3 15.02 0.591
04:17 1023 30.21 852 25.16 14.7 58.4 56 6.2 43.1 15.02 0.591
04:18 1023 30.21 852 25.16 14.7 58.4 57 6.3 43.3 15.06 0.593
04:19 1023 30.21 852 25.16 14.6 58.3 57 6.3 43.4 14.99 0.59
04:20 1023 30.21 852 25.16 14.6 58.2 57 6.3 43.3 14.9 0.587
04:21 1023 30.21 852 25.16 14.6 58.2 57 6.1 43 14.98 0.59
04:22 1023 30.21 852 25.16 14.7 58.4 57 6.2 43.2 15.03 0.592
04:23 1023 30.21 852 25.16 14.7 58.4 56 6.1 42.9 15.03 0.592
04:24 1023 30.21 852 25.16 14.7 58.5 57 6.2 43.2 15.08 0.594
04:25 1023 30.21 852 25.16 14.7 58.4 56 6.2 43.1 15.08 0.594
04:26 1023 30.21 852 25.16 14.7 58.4 56 6.1 43 15.02 0.591
04:27 1023 30.21 852 25.16 14.7 58.4 56 6.2 43.1 15.02 0.591
04:28 1023 30.21 852 25.16 14.6 58.4 56 6 42.8 15.03 0.592
04:29 1023 30.21 852 25.16 14.7 58.5 56 6.1 42.9 15.08 0.594
04:30 1023 30.21 852 25.16 14.7 58.5 56 6.2 43.1 15.1 0.594
04:31 1023 30.21 852 25.16 14.7 58.4 56 6.1 43 15.03 0.592
04:32 1023 30.21 852 25.16 14.6 58.4 56 6 42.8 15.01 0.591
04:33 1023 30.21 852 25.16 14.7 58.4 56 6.1 43 15.06 0.593
04:34 1023 30.21 852 25.16 14.7 58.5 56 6.1 43 15.09 0.594
04:35 1023 30.21 852 25.16 14.7 58.5 56 6 42.9 15.1 0.594
04:36 1023 30.21 852 25.16 14.7 58.5 56 6.1 43 15.11 0.595
04:37 1023 30.21 852 25.16 14.7 58.5 56 6 42.8 15.06 0.593
04:38 1023 30.21 852 25.16 14.7 58.5 56 6.1 43 15.11 0.595
04:39 1023 30.21 852 25.16 14.7 58.5 57 6.3 43.3 15.06 0.593
04:40 1023 30.21 852 25.16 14.6 58.3 57 6.2 43.2 15 0.591
04:41 1023 30.21 852 25.16 14.6 58.2 57 6.1 43.1 14.96 0.589
04:42 1023 30.21 852 25.16 14.6 58.3 57 6.2 43.2 14.97 0.589
04:43 1023 30.21 852 25.16 14.6 58.2 56 6.1 43 14.96 0.589
04:44 1023 30.21 852 25.16 14.6 58.3 56 6 42.9 15.01 0.591
04:45 1023 30.21 852 25.16 14.7 58.4 56 6 42.8 15.1 0.594
04:46 1023 30.21 852 25.16 14.7 58.5 56 6.1 43 15.11 0.595
04:47 1023 30.21 852 25.16 14.8 58.6 56 6.1 43 15.12 0.595
04:48 1023 30.21 852 25.16 14.8 58.6 55 6 42.9 15.16 0.597
04:49 1023 30.21 852 25.16 14.8 58.6 55 6 42.9 15.19 0.598
04:50 1023 30.21 852 25.16 14.8 58.7 56 6.2 43.1 15.18 0.598
04:51 1023 30.21 852 25.16 14.8 58.7 56 6.2 43.1 15.14 0.596
04:52 1023 30.21 852 25.16 14.8 58.6 56 6.1 42.9 15.1 0.594
04:53 1023 30.21 852 25.16 14.8 58.6 56 6.2 43.1 15.1 0.594
04:54 1023 30.21 852 25.16 14.7 58.4 56 6.1 42.9 15.05 0.593
04:55 1023 30.21 852 25.16 14.7 58.4 57 6.3 43.3 15.05 0.593
04:56 1023 30.21 852 25.16 14.6 58.2 56 6.1 42.9 14.95 0.589
04:57 1023 30.21 852 25.16 14.6 58.2 56 6.1 42.9 14.92 0.587
04:58 1023 30.21 852 25.16 14.5 58.1 56 6 42.8 14.93 0.588
04:59 1023 30.21 852 25.16 14.6 58.3 57 6.2 43.1 14.96 0.589
05:00 1023 30.21 852 25.16 14.6 58.3 57 6.2 43.1 14.9 0.587
05:01 1023 30.21 852 25.16 14.6 58.2 57 6.1 43 14.9 0.587
05:02 1023 30.21 852 25.16 14.6 58.2 57 6.2 43.1 14.88 0.586
05:03 1023 30.21 852 25.16 14.5 58.1 56 6 42.8 14.88 0.586
05:04 1023 30.21 852 25.16 14.5 58.1 56 6 42.8 14.88 0.586
05:05 1023 30.21 852 25.16 14.5 58.1 56 6 42.8 14.84 0.584
05:06 1023 30.21 852 25.16 14.5 58.1 57 6 42.9 14.86 0.585
05:07 1023 30.21 852 25.16 14.5 58 57 6 42.8 14.79 0.582
05:08 1023 30.21 852 25.16 14.5 58 57 6.1 43 14.8 0.583
05:09 1023 30.21 852 25.16 14.4 57.9 57 6.1 42.9 14.76 0.581
05:10 1023 30.21 852 25.16 14.3 57.8 57 5.9 42.7 14.73 0.58
05:11 1023 30.21 852 25.16 14.4 57.8 57 6.1 43 14.73 0.58
05:12 1023 30.21 852 25.16 14.3 57.7 57 6.1 42.9 14.64 0.576
05:13 1023 30.21 852 25.16 14.3 57.7 58 6.1 43 14.62 0.576
05:14 1023 30.21 852 25.16 14.3 57.7 57 6.1 42.9 14.66 0.577
05:15 1023 30.21 852 25.16 14.3 57.7 57 6.1 42.9 14.67 0.578
05:16 1023 30.21 852 25.16 14.4 57.8 57 6.1 42.9 14.71 0.579
05:17 1023 30.21 852 25.16 14.4 57.8 57 6.1 43 14.69 0.578
05:18 1023 30.21 852 25.16 14.4 57.8 57 6 42.8 14.74 0.58
05:19 1023 30.21 852 25.16 14.4 57.9 56 5.9 42.7 14.77 0.581
05:20 1023 30.21 852 25.16 14.4 57.9 56 5.9 42.6 14.82 0.583
05:21 1023 30.21 852 25.16 14.5 58.1 56 6 42.8 14.9 0.587
05:22 1023 30.21 852 25.16 14.5 58.1 57 6 42.9 14.87 0.585
05:23 1023 30.21 852 25.16 14.5 58 56 5.9 42.6 14.78 0.582
05:24 1023 30.21 852 25.16 14.5 58 57 6.1 42.9 14.81 0.583
05:25 1023 30.21 852 25.16 14.4 58 57 6.1 42.9 14.82 0.583
05:26 1023 30.21 852 25.16 14.4 58 57 6 42.8 14.78 0.582
05:27 1023 30.21 852 25.16 14.4 57.9 57 6 42.7 14.78 0.582
05:28 1023 30.21 852 25.16 14.5 58 57 6 42.8 14.82 0.583
05:29 1023 30.21 852 25.16 14.4 58 56 5.9 42.6 14.78 0.582
05:30 1023 30.21 852 25.16 14.4 57.9 57 6.1 42.9 14.8 0.583
05:31 1023 30.21 852 25.16 14.4 57.9 57 6.2 43.1 14.72 0.58
05:32 1023 30.21 852 25.16 14.3 57.7 57 6 42.8 14.69 0.578
05:33 1023 30.21 852 25.16 14.3 57.7 57 6 42.7 14.65 0.577
05:34 1023 30.21 852 25.16 14.3 57.7 57 6 42.9 14.67 0.578
05:35 1023 30.21 852 25.16 14.3 57.7 57 6 42.7 14.65 0.577
05:36 1023 30.21 852 25.16 14.3 57.7 58 6.1 43 14.67 0.578
05:37 1023 30.21 852 25.16 14.3 57.7 57 5.9 42.6 14.59 0.574
05:38 1023 30.21 852 25.16 14.2 57.6 58 6.1 43 14.57 0.574
05:39 1023 30.21 852 25.16 14.1 57.5 58 6 42.9 14.49 0.57
05:40 1023 30.21 852 25.16 14.1 57.4 57 5.9 42.6 14.5 0.571
05:41 1023 30.21 852 25.16 14.2 57.5 58 6.2 43.1 14.53 0.572
05:42 1023 30.21 852 25.16 14.1 57.3 58 6.1 42.9 14.42 0.568
05:43 1023 30.21 852 25.16 14 57.2 59 6.2 43.1 14.4 0.567
05:44 1023 30.21 852 25.16 14 57.1 59 6.1 43 14.31 0.563
05:45 1023 30.21 852 25.16 13.9 57 59 6.1 42.9 14.26 0.561
05:46 1023 30.21 852 25.16 13.8 56.9 60 6.2 43.2 14.17 0.558
05:47 1023 30.21 852 25.16 13.7 56.7 59 6 42.8 14.1 0.555
05:48 1023 30.21 852 25.16 13.8 56.8 59 6 42.8 14.14 0.557
05:49 1023 30.21 852 25.16 13.7 56.7 59 5.9 42.7 14.14 0.557
05:50 1023 30.21 852 25.16 13.8 56.8 59 6 42.8 14.19 0.559
05:51 1023 30.21 852 25.16 13.8 56.8 59 6 42.7 14.18 0.558
05:52 1023 30.21 852 25.16 13.8 56.9 58 5.9 42.6 14.21 0.559
05:53 1023 30.21 852 25.16 13.9 57.1 58 6 42.8 14.34 0.565
05:54 1023 30.21 852 25.16 14 57.1 58 5.9 42.6 14.36 0.565
05:55 1023 30.21 852 25.16 14 57.2 58 6 42.7 14.36 0.565
05:56 1023 30.21 852 25.16 14 57.2 58 5.8 42.5 14.38 0.566
05:57 1023 30.21 852 25.16 14 57.3 58 5.9 42.7 14.43 0.568
05:58 1023 30.21 852 25.16 14.1 57.3 58 5.9 42.7 14.42 0.568
05:59 1023 30.21 852 25.16 14.1 57.3 58 6.1 42.9 14.43 0.568
06:00 1023 30.21 852 25.16 14.1 57.3 58 6 42.9 14.38 0.566
06:01 1023 30.21 852 25.16 14 57.2 58 6 42.8 14.36 0.565
06:02 1023 30.21 852 25.16 14 57.1 58 6 42.8 14.31 0.563
06:03 1023 30.21 852 25.16 13.9 57.1 58 5.9 42.6 14.31 0.563
06:04 1023 30.21 852 25.16 14 57.1 58 5.9 42.7 14.32 0.564
06:05 1023 30.21 852 25.16 13.9 57.1 59 6 42.8 14.27 0.562
06:06 1023 30.21 852 25.16 13.9 57 58 5.9 42.6 14.26 0.561
06:07 1023 30.21 852 25.16 13.9 57 58 5.9 42.7 14.29 0.563
06:08 1023 30.21 852 25.16 13.9 57 58 5.9 42.7 14.27 0.562
06:09 1023 30.21 852 25.16 13.9 57 59 6 42.8 14.27 0.562
06:10 1023 30.21 852 25.16 13.9 57 59 6.1 42.9 14.24 0.561
06:11 1023 30.21 852 25.16 13.9 56.9 59 6 42.8 14.25 0.561
06:12 1023 30.21 852 25.16 13.8 56.9 59 6.1 43 14.2 0.559
06:13 1023 30.21 852 25.16 13.8 56.8 59 6 42.8 14.13 0.556
06:14 1023 30.21 852 25.16 13.8 56.8 59 6 42.8 14.13 0.556
06:15 1023 30.21 852 25.16 13.8 56.8 59 5.9 42.6 14.17 0.558
06:16 1023 30.21 852 25.16 13.8 56.9 59 6 42.8 14.22 0.56
06:17 1023 30.21 852 25.16 13.9 57 58 5.9 42.7 14.23 0.56
06:18 1023 30.21 852 25.16 13.9 56.9 59 6 42.7 14.22 0.56
06:19 1023 30.21 852 25.16 13.9 56.9 59 5.9 42.7 14.21 0.559
06:20 1023 30.21 852 25.16 13.8 56.9 59 6 42.8 14.2 0.559
06:21 1023 30.21 852 25.16 13.8 56.9 59 6 42.8 14.2 0.559
06:22 1023 30.21 852 25.16 13.8 56.9 59 6.1 42.9 14.17 0.558
06:23 1023 30.21 852 25.16 13.8 56.8 59 5.9 42.7 14.18 0.558
06:24 1023 30.21 852 25.16 13.8 56.8 59 6 42.8 14.17 0.558
06:25 1023 30.21 852 25.16 13.8 56.8 59 6 42.8 14.19 0.559
06:26 1023 30.21 852 25.16 13.8 56.9 59 6.1 42.9 14.16 0.557
06:27 1023 30.21 852 25.16 13.8 56.8 59 6.1 42.9 14.15 0.557
06:28 1023 30.21 852 25.16 13.8 56.8 59 6 42.8 14.12 0.556
06:29 1023 30.21 852 25.16 13.8 56.8 59 5.9 42.7 14.16 0.557
06:30 1023 30.21 852 25.16 13.8 56.9 59 6.1 43 14.2 0.559
06:31 1023 30.21 852 25.16 13.8 56.8 59 6 42.8 14.1 0.555
06:32 1023 30.21 852 25.16 13.8 56.8 60 6.1 43 14.15 0.557
06:33 1023 30.21 852 25.16 13.8 56.8 59 6 42.8 14.1 0.555
06:34 1023 30.21 852 25.16 13.8 56.8 60 6.1 42.9 14.11 0.556
06:35 1023 30.21 852 25.16 13.7 56.7 60 6.1 42.9 14.09 0.555
06:36 1023 30.21 852 25.16 13.7 56.6 60 6.2 43.2 14.09 0.555
06:37 1023 30.21 852 25.16 13.7 56.7 60 6.1 42.9 14.03 0.552
06:38 1023 30.21 852 25.16 13.8 56.8 59 6 42.9 14.1 0.555
06:39 1023 30.21 852 25.16 13.8 56.9 59 5.9 42.7 14.16 0.557
06:40 1023 30.21 852 25.16 13.8 56.9 59 6.1 43 14.21 0.559
06:41 1023 30.21 852 25.16 13.9 56.9 58 5.9 42.7 14.26 0.561
06:42 1023 30.21 852 25.16 13.9 57.1 59 6.1 42.9 14.28 0.562
06:43 1023 30.21 852 25.16 14 57.1 58 6 42.8 14.33 0.564
06:44 1023 30.21 852 25.16 14 57.2 58 5.9 42.7 14.35 0.565
06:45 1023 30.21 852 25.16 14 57.2 59 6.2 43.1 14.35 0.565
06:46 1023 30.21 852 25.16 13.9 57.1 59 6.1 43 14.29 0.563
06:47 1023 30.21 852 25.16 14 57.2 59 6.1 42.9 14.32 0.564
06:48 1023 30.21 852 25.16 14 57.1 58 6 42.9 14.36 0.565
06:49 1023 30.21 852 25.16 14 57.2 59 6.3 43.3 14.4 0.567
06:50 1023 30.21 852 25.16 14 57.2 59 6.1 43 14.33 0.564
06:51 1023 30.21 852 25.16 14 57.2 58 6 42.8 14.41 0.567
06:52 1023 30.21 852 25.16 14.1 57.4 58 6 42.8 14.45 0.569
06:53 1023 30.21 852 25.16 14.2 57.5 58 6.1 43 14.54 0.572
06:54 1023 30.21 852 25.16 14.2 57.5 58 6 42.8 14.53 0.572
06:55 1023 30.21 852 25.16 14.2 57.6 58 6.1 43 14.58 0.574
06:56 1023 30.21 852 25.16 14.2 57.5 58 6.2 43.1 14.57 0.574
06:57 1023 30.21 852 25.16 14.2 57.6 58 6.1 43 14.6 0.575
06:58 1023 30.21 852 25.16 14.2 57.6 59 6.3 43.3 14.57 0.574
06:59 1023 30.21 852 25.16 14.1 57.4 59 6.2 43.2 14.5 0.571
07:00 1023 30.21 852 25.16 14.1 57.3 59 6.2 43.2 14.46 0.569
07:01 1023 30.21 852 25.16 14.1 57.3 58 6.1 43 14.44 0.569
07:02 1023 30.21 852 25.16 14.1 57.4 58 6.1 43.1 14.5 0.571
07:03 1023 30.21 852 25.16 14.1 57.4 59 6.4 43.5 14.52 0.572
07:04 1023 30.21 852 25.16 14.1 57.3 60 6.5 43.7 14.46 0.569
07:05 1023 30.21 852 25.16 14 57.2 59 6.2 43.2 14.45 0.569
07:06 1023 30.21 852 25.16 14 57.2 60 6.3 43.4 14.46 0.569
07:07 1023 30.21 852 25.16 14 57.2 60 6.5 43.6 14.42 0.568
07:08 1023 30.21 852 25.16 14 57.1 60 6.5 43.7 14.41 0.567
07:09 1023 30.21 852 25.16 13.9 57.1 61 6.6 43.8 14.4 0.567
07:10 1023 30.21 852 25.16 13.9 57.1 61 6.5 43.7 14.43 0.568
07:11 1023 30.21 852 25.16 13.9 57.1 61 6.6 43.8 14.41 0.567
07:12 1023 30.21 852 25.16 13.9 56.9 61 6.6 43.9 14.39 0.567
07:13 1023 30.21 852 25.16 13.9 56.9 62 6.8 44.3 14.33 0.564
07:14 1023 30.21 852 25.16 13.7 56.7 63 7 44.5 14.32 0.564
07:15 1023 30.21 852 25.16 13.6 56.5 63 6.7 44 14.19 0.559
07:16 1023 30.21 852 25.16 13.5 56.4 64 6.9 44.4 14.14 0.557
07:17 1023 30.21 852 25.16 13.5 56.3 64 6.9 44.4 14.12 0.556
07:18 1023 30.21 852 25.16 13.5 56.2 64 6.8 44.2 14.09 0.555
07:19 1023 30.21 852 25.16 13.5 56.2 65 7 44.6 14.05 0.553
07:20 1023 30.21 852 25.16 13.4 56.2 64 6.9 44.4 14.1 0.555
07:21 1023 30.21 852 25.16 13.5 56.3 64 6.8 44.2 14.12 0.556
07:22 1023 30.21 852 25.16 13.5 56.3 64 6.9 44.4 14.13 0.556
07:23 1023 30.21 852 25.16 13.6 56.5 62 6.6 43.9 14.19 0.559
07:24 1023 30.21 852 25.16 13.6 56.5 64 7 44.6 14.27 0.562
07:25 1023 30.21 852 25.16 13.7 56.7 63 6.8 44.3 14.29 0.563
07:26 1023 30.21 852 25.16 13.8 56.8 63 6.9 44.3 14.39 0.567
07:27 1023 30.21 852 25.16 13.9 56.9 63 7 44.5 14.46 0.569
07:28 1023 30.21 852 25.16 13.9 57 63 7.2 44.9 14.5 0.571
07:29 1023 30.21 852 25.16 13.9 57.1 63 6.9 44.5 14.55 0.573
07:30 1023 30.21 852 25.16 13.9 57.1 64 7.2 44.9 14.58 0.574
07:31 1023 30.21 852 25.16 14 57.1 63 7.1 44.7 14.63 0.576
07:32 1023 30.21 852 25.16 14 57.1 63 7.2 44.9 14.66 0.577
07:33 1023 30.21 852 25.16 14 57.2 64 7.4 45.4 14.69 0.578
07:34 1023 30.21 852 25.16 14.1 57.3 64 7.5 45.4 14.71 0.579
07:35 1023 30.21 852 25.16 14 57.3 64 7.4 45.3 14.75 0.581
07:36 1023 30.21 852 25.16 14.1 57.3 63 7.3 45.1 14.75 0.581
07:37 1023 30.21 852 25.16 14.1 57.4 63 7.3 45.1 14.79 0.582
07:38 1023 30.21 852 25.16 14.1 57.4 63 7.3 45.2 14.82 0.583
07:39 1023 30.21 852 25.16 14.2 57.5 65 7.7 45.8 14.86 0.585
07:40 1023 30.21 852 25.16 14.2 57.5 64 7.5 45.4 14.89 0.586
07:41 1023 30.21 852 25.16 14.2 57.6 65 7.8 46.1 14.96 0.589
07:42 1023 30.21 852 25.16 14.3 57.7 65 7.7 45.9 14.96 0.589
07:43 1023 30.21 852 25.16 14.3 57.7 64 7.6 45.7 15 0.591
07:44 1023 30.21 852 25.16 14.3 57.7 65 7.8 46.1 15.05 0.593
07:45 1023 30.21 852 25.16 14.3 57.8 64 7.6 45.7 15.1 0.594
07:46 1023 30.21 852 25.16 14.4 57.8 66 8.1 46.6 15.14 0.596
07:47 1023 30.21 852 25.16 14.4 57.9 64 7.8 46 15.19 0.598
07:48 1023 30.21 852 25.16 14.5 58 65 7.9 46.3 15.22 0.599
07:49 1023 30.21 852 25.16 14.5 58.1 64 7.9 46.2 15.3 0.602
07:50 1023 30.21 852 25.16 14.6 58.3 62 7.5 45.6 15.36 0.605
07:51 1023 30.21 852 25.16 14.7 58.4 64 8 46.5 15.47 0.609
07:52 1023 30.21 852 25.16 14.8 58.6 60 7.1 44.7 15.55 0.612
07:53 1023 30.21 852 25.16 14.9 58.8 60 7.4 45.3 15.66 0.617
07:54 1023 30.21 852 25.16 15.1 59.1 61 7.8 46 15.72 0.619
07:55 1023 30.21 852 25.16 15.2 59.4 57 6.9 44.4 15.79 0.622
07:56 1023 30.21 852 25.16 15.3 59.6 58 7.2 45 15.9 0.626
07:57 1023 30.21 852 25.16 15.4 59.7 60 7.7 45.8 16.01 0.63
07:58 1023 30.21 852 25.16 15.5 59.8 58 7.2 44.9 16.07 0.633
07:59 1023 30.21 852 25.16 15.5 59.9 59 7.7 45.9 16.11 0.634
08:00 1023 30.21 852 25.16 15.6 60 62 8.3 47 16.15 0.636
08:01 1023 30.21 852 25.16 15.6 60 59 7.7 45.9 16.19 0.637
08:02 1023 30.21 852 25.16 15.6 60.2 61 8.2 46.8 16.2 0.638
08:03 1023 30.21 852 25.16 15.7 60.3 58 7.7 45.8 16.27 0.641
08:04 1023 30.21 852 25.16 15.8 60.4 58 7.5 45.5 16.23 0.639
08:05 1023 30.21 852 25.16 15.7 60.3 57 7.5 45.4 16.19 0.637
08:06 1023 30.21 852 25.16 15.8 60.4 57 7.4 45.2 16.21 0.638
08:07 1023 30.21 852 25.16 15.8 60.4 56 7.2 44.9 16.17 0.637
08:08 1023 30.21 852 25.16 15.7 60.2 57 7.3 45.1 16.13 0.635
08:09 1023 30.21 852 25.16 15.7 60.3 56 7.2 44.9 16.11 0.634
08:10 1023 30.21 852 25.16 15.7 60.3 58 7.7 45.8 16.12 0.635
08:11 1023 30.21 852 25.16 15.7 60.3 57 7.4 45.3 16.17 0.637
08:12 1023 30.21 852 25.16 15.7 60.3 57 7.3 45.2 16.2 0.638
08:13 1023 30.21 852 25.16 15.8 60.4 58 7.7 45.8 16.24 0.639
08:14 1023 30.21 852 25.16 15.7 60.3 60 8.1 46.6 16.32 0.643
08:15 1023 30.21 852 25.16 15.8 60.4 57 7.5 45.5 16.36 0.644
08:16 1023 30.21 852 25.16 15.8 60.4 57 7.4 45.4 16.32 0.643
08:17 1023 30.21 852 25.16 15.8 60.4 60 8.1 46.6 16.36 0.644
08:18 1023 30.21 852 25.16 15.9 60.6 61 8.4 47.2 16.42 0.646
08:19 1023 30.21 852 25.16 15.9 60.6 61 8.4 47.1 16.51 0.65
08:20 1023 30.21 852 25.16 16 60.7 61 8.5 47.2 16.61 0.654
08:21 1023 30.21 852 25.16 16 60.9 62 8.8 47.8 16.71 0.658
08:22 1023 30.21 852 25.16 16.1 61 62 8.8 47.9 16.74 0.659
08:23 1023 30.21 852 25.16 16.2 61.2 59 8.3 47 16.83 0.663
08:24 1023 30.21 852 25.16 16.3 61.3 56 7.6 45.7 16.85 0.663
08:25 1023 30.21 852 25.16 16.3 61.3 60 8.6 47.4 16.92 0.666
08:26 1023 30.21 852 25.16 16.4 61.4 57 7.9 46.1 16.96 0.668
08:27 1023 30.21 852 25.16 16.4 61.5 60 8.7 47.7 16.99 0.669
08:28 1023 30.21 853 25.19 16.5 61.6 59 8.4 47.1 17.07 0.672
08:29 1023 30.21 853 25.19 16.6 61.8 57 8.1 46.6 17.08 0.672
08:30 1023 30.21 853 25.19 16.7 62 59 8.7 47.7 17.14 0.675
08:31 1023 30.21 853 25.19 16.8 62.2 56 7.9 46.2 17.2 0.677
08:32 1023 30.21 852 25.16 16.7 62.1 56 8.1 46.5 17.21 0.678
08:33 1023 30.21 852 25.16 16.8 62.2 55 7.9 46.2 17.27 0.68
08:34 1023 30.21 852 25.16 16.9 62.4 58 8.5 47.4 17.34 0.683
08:35 1023 30.21 852 25.16 16.9 62.5 59 8.9 48 17.48 0.688
08:36 1023 30.21 853 25.19 17.1 62.8 60 9.3 48.8 17.58 0.692
08:37 1023 30.21 852 25.16 17.2 63 53 7.7 45.9 17.71 0.697
08:38 1023 30.21 852 25.16 17.3 63.1 58 9 48.2 17.71 0.697
08:39 1023 30.21 853 25.19 17.3 63.2 56 8.7 47.6 17.83 0.702
08:40 1023 30.21 853 25.19 17.4 63.3 57 8.9 48 17.84 0.702
08:41 1023 30.21 853 25.19 17.5 63.4 54 8.2 46.7 17.87 0.704
08:42 1023 30.21 853 25.19 17.5 63.4 53 7.9 46.3 17.78 0.7
08:43 1023 30.21 853 25.19 17.4 63.3 53 7.7 45.9 17.76 0.699
08:44 1023 30.21 853 25.19 17.4 63.2 53 7.8 46.1 17.71 0.697
08:45 1023 30.21 853 25.19 17.4 63.3 54 8 46.5 17.78 0.7
08:46 1023 30.21 853 25.19 17.4 63.3 53 7.8 46.1 17.8 0.701
08:47 1023 30.21 853 25.19 17.5 63.4 55 8.3 47 17.85 0.703
08:48 1023 30.21 853 25.19 17.5 63.5 54 8.2 46.7 17.95 0.707
08:49 1023 30.21 853 25.19 17.5 63.6 54 8.2 46.7 17.89 0.704
08:50 1023 30.21 853 25.19 17.5 63.5 50 7.2 45 17.85 0.703
08:51 1023 30.21 853 25.19 17.5 63.5 49 6.8 44.3 17.83 0.702
08:52 1023 30.21 853 25.19 17.5 63.5 54 8.1 46.6 17.88 0.704
08:53 1023 30.21 853 25.19 17.5 63.5 53 8 46.3 17.92 0.706
08:54 1023 30.21 853 25.19 17.5 63.6 50 7.2 45 17.95 0.707
08:55 1023 30.21 853 25.19 17.5 63.6 53 7.9 46.2 17.94 0.706
08:56 1023 30.21 853 25.19 17.5 63.5 52 7.7 45.9 18.01 0.709
08:57 1023 30.21 853 25.19 17.5 63.5 52 7.7 45.8 17.99 0.708
08:58 1023 30.21 852 25.16 17.5 63.6 53 8 46.4 18.07 0.711
08:59 1023 30.21 852 25.16 17.6 63.7 55 8.6 47.5 18.14 0.714
09:00 1023 30.21 852 25.16 17.7 63.8 53 8.1 46.6 18.2 0.717
09:01 1023 30.21 852 25.16 17.7 63.9 51 7.6 45.7 18.26 0.719
09:02 1023 30.21 852 25.16 17.8 64 55 8.7 47.6 18.26 0.719
09:03 1023 30.21 852 25.16 17.9 64.1 54 8.5 47.3 18.34 0.722
09:04 1023 30.21 852 25.16 18 64.3 56 9.2 48.5 18.34 0.722
09:05 1023 30.21 852 25.16 18 64.5 55 8.9 48 18.44 0.726
09:06 1023 30.21 852 25.16 18.1 64.6 59 10.1 50.2 18.55 0.73
09:07 1023 30.21 852 25.16 18.1 64.6 56 9.4 48.8 18.64 0.734
09:08 1023 30.21 852 25.16 18.1 64.6 56 9.3 48.8 18.65 0.734
09:09 1023 30.21 852 25.16 18.1 64.6 54 8.7 47.7 18.7 0.736
09:10 1023 30.21 852 25.16 18.1 64.6 56 9.2 48.6 18.68 0.735
09:11 1023 30.21 852 25.16 18.1 64.5 53 8.6 47.4 18.67 0.735
09:12 1023 30.21 852 25.16 18.2 64.7 56 9.3 48.8 18.71 0.737
09:13 1023 30.21 852 25.16 18.1 64.6 52 8.3 46.9 18.71 0.737
09:14 1023 30.21 852 25.16 18.1 64.6 51 8 46.4 18.69 0.736
09:15 1023 30.21 852 25.16 18.1 64.5 53 8.5 47.4 18.7 0.736
09:16 1023 30.21 852 25.16 18.1 64.5 56 9.2 48.5 18.72 0.737
09:17 1023 30.21 852 25.16 18.2 64.7 55 9.1 48.4 18.8 0.74
09:18 1023 30.21 852 25.16 18.2 64.7 50 7.6 45.7 18.81 0.741
09:19 1023 30.21 852 25.16 18.2 64.8 53 8.6 47.5 18.72 0.737
09:20 1023 30.21 852 25.16 18.2 64.8 53 8.7 47.6 18.74 0.738
09:21 1023 30.21 852 25.16 18.3 64.9 51 8.1 46.6 18.8 0.74
09:22 1023 30.21 852 25.16 18.3 64.9 54 9 48.2 18.86 0.743
09:23 1023 30.21 852 25.16 18.4 65.1 58 10 50.1 18.99 0.748
09:24 1023 30.21 852 25.16 18.5 65.2 51 8.3 46.9 19.1 0.752
09:25 1023 30.21 852 25.16 18.4 65.1 50 8 46.5 19.05 0.75
09:26 1023 30.21 852 25.16 18.4 65.1 51 8.3 47 19.05 0.75
09:27 1023 30.21 852 25.16 18.4 65.2 55 9.4 48.9 19.14 0.754
09:28 1023 30.21 852 25.16 18.5 65.4 55 9.5 49 19.2 0.756
09:29 1023 30.21 852 25.16 18.8 65.8 56 9.8 49.7 19.29 0.759
09:30 1023 30.21 852 25.16 19 66.2 57 10.4 50.7 19.53 0.769
09:31 1023 30.21 852 25.16 19.1 66.4 56 10.2 50.4 19.64 0.773
09:32 1023 30.21 852 25.16 19.2 66.5 52 9.2 48.6 19.71 0.776
09:33 1023 30.21 852 25.16 19.3 66.8 56 10.3 50.6 19.75 0.778
09:34 1023 30.21 852 25.16 19.4 66.9 55 10.3 50.5 19.9 0.783
09:35 1023 30.21 852 25.16 19.4 66.9 51 9.1 48.4 19.91 0.784
09:36 1023 30.21 852 25.16 19.3 66.8 50 8.9 48 19.89 0.783
09:37 1023 30.21 852 25.16 19.3 66.7 54 9.8 49.6 19.92 0.784
09:38 1023 30.21 852 25.16 19.3 66.7 53 9.6 49.4 20.02 0.788
09:39 1023 30.21 852 25.16 19.5 67 53 9.6 49.3 20.14 0.793
09:40 1023 30.21 852 25.16 19.4 67 49 8.5 47.4 20.09 0.791
09:41 1023 30.21 852 25.16 19.3 66.8 46 7.7 45.8 19.86 0.782
09:42 1023 30.21 852 25.16 19.3 66.7 50 8.8 47.9 19.79 0.779
09:43 1023 30.21 852 25.16 19.3 66.8 50 8.9 48 19.87 0.782
09:44 1023 30.21 852 25.16 19.3 66.8 48 8.2 46.8 19.87 0.782
09:45 1023 30.21 852 25.16 19.3 66.7 51 9 48.2 19.82 0.78
09:46 1023 30.21 852 25.16 19.3 66.8 52 9.3 48.7 19.78 0.779
09:47 1023 30.21 852 25.16 19.4 66.8 47 8 46.5 19.81 0.78
09:48 1023 30.21 852 25.16 19.5 67 51 9.2 48.5 19.96 0.786
09:49 1023 30.21 852 25.16 19.7 67.4 48 8.4 47.1 20.18 0.794
09:50 1023 30.21 852 25.16 19.7 67.5 52 9.8 49.6 20.23 0.796
09:51 1023 30.21 852 25.16 19.8 67.6 54 10.3 50.5 20.27 0.798
09:52 1023 30.21 852 25.16 19.9 67.7 48 8.7 47.7 20.3 0.799
09:53 1023 30.21 852 25.16 20 68.1 50 9.4 48.8 20.46 0.806
09:54 1023 30.21 852 25.16 20.2 68.4 50 9.7 49.4 20.65 0.813
09:55 1023 30.21 852 25.16 20.4 68.7 46 8.5 47.4 20.86 0.821
09:56 1023 30.21 852 25.16 20.6 69.1 51 10.2 50.3 21.02 0.828
09:57 1023 30.21 852 25.16 20.7 69.3 45 8.5 47.2 21.1 0.831
09:58 1023 30.21 852 25.16 20.7 69.3 50 10 50.1 21.12 0.831
09:59 1023 30.21 852 25.16 20.6 69.1 45 8.5 47.3 20.96 0.825
10:00 1023 30.21 852 25.16 20.4 68.6 49 9.6 49.2 20.76 0.817
10:01 1023 30.21 852 25.16 20.2 68.3 48 9 48.2 20.57 0.81
10:02 1023 30.21 852 25.16 20 67.9 49 9.1 48.4 20.4 0.803
10:03 1023 30.21 852 25.16 20 67.9 50 9.4 49 20.38 0.802
10:04 1023 30.21 852 25.16 19.9 67.9 54 10.5 50.9 20.37 0.802
10:05 1023 30.21 852 25.16 20 68.1 46 8.3 47 20.44 0.805
10:06 1023 30.21 852 25.16 20 68 46 8.2 46.8 20.38 0.802
10:07 1023 30.21 852 25.16 20 67.9 52 9.9 49.8 20.39 0.803
10:08 1023 30.21 852 25.16 20 68 46 8.2 46.7 20.43 0.804
10:09 1023 30.21 852 25.16 20 68 45 8 46.4 20.42 0.804
10:10 1023 30.21 852 25.16 20 68 47 8.6 47.4 20.45 0.805
10:11 1023 30.21 852 25.16 20.2 68.3 48 8.9 48.1 20.58 0.81
10:12 1023 30.21 852 25.16 20.5 68.9 50 9.9 49.8 20.83 0.82
10:13 1023 30.21 852 25.16 20.8 69.4 52 10.6 51.1 20.92 0.824
10:14 1023 30.21 852 25.16 21 69.7 46 9.1 48.3 20.97 0.826
10:15 1023 30.21 852 25.16 21.1 69.9 45 9 48.2 20.99 0.826
10:16 1023 30.21 852 25.16 21.1 70 49 10 50 21.08 0.83
10:17 1023 30.21 852 25.16 21.2 70.2 45 8.9 48 21.28 0.838
10:18 1023 30.21 852 25.16 21 69.8 48 9.7 49.5 21.23 0.836
10:19 1023 30.21 852 25.16 20.9 69.6 45 8.8 47.9 21.19 0.834
10:20 1023 30.21 852 25.16 20.8 69.5 49 9.8 49.6 21.07 0.83
10:21 1023 30.21 852 25.16 20.7 69.3 48 9.5 49 21.02 0.828
10:22 1023 30.21 852 25.16 20.6 69.1 46 8.8 47.8 20.89 0.822
10:23 1023 30.21 852 25.16 20.5 68.9 50 9.9 49.8 20.79 0.819
10:24 1023 30.21 852 25.16 20.5 68.9 47 9.1 48.4 20.76 0.817
10:25 1023 30.21 852 25.16 20.5 69 47 9.1 48.3 20.77 0.818
10:26 1023 30.21 852 25.16 20.7 69.2 48 9.4 48.9 20.84 0.82
10:27 1023 30.21 852 25.16 20.8 69.4 48 9.5 49.1 20.86 0.821
10:28 1023 30.21 852 25.16 20.9 69.6 49 9.9 49.8 20.92 0.824
10:29 1023 30.21 852 25.16 21.1 69.9 47 9.4 48.9 20.94 0.824
10:30 1023 30.21 852 25.16 21.2 70.1 52 11 51.9 21.08 0.83
10:31 1023 30.21 852 25.16 21.4 70.5 50 10.7 51.3 21.37 0.841
10:32 1023 30.21 852 25.16 21.4 70.5 47 9.6 49.4 21.37 0.841
10:33 1023 30.21 852 25.16 21.2 70.2 46 9.2 48.5 21.3 0.839
10:34 1023 30.21 852 25.16 21.3 70.3 46 9.5 49 21.43 0.844
10:35 1023 30.21 852 25.16 21.3 70.4 47 9.7 49.5 21.63 0.852
10:36 1023 30.21 852 25.16 21.5 70.7 47 9.8 49.6 21.85 0.86
10:37 1023 30.21 852 25.16 21.3 70.4 48 10.1 50.2 21.74 0.856
10:38 1023 30.21 852 25.16 21.1 70 49 10 50.1 21.56 0.849
10:39 1023 30.21 852 25.16 20.9 69.7 47 9.4 49 21.33 0.84
10:40 1023 30.21 852 25.16 20.8 69.4 54 11.2 52.1 21.18 0.834
10:41 1023 30.21 852 25.16 20.8 69.4 49 9.9 49.7 21.24 0.836
10:42 1023 30.21 852 25.16 21 69.9 51 10.7 51.3 21.38 0.842
10:43 1023 30.21 852 25.16 21.3 70.3 54 11.7 53 21.56 0.849
10:44 1023 30.21 852 25.16 21.5 70.7 44 8.8 47.9 21.66 0.853
10:45 1023 30.21 852 25.16 21.6 70.9 45 9.3 48.8 21.73 0.856
10:46 1023 30.21 852 25.16 21.6 71 42 8.5 47.2 21.76 0.857
10:47 1023 30.21 852 25.16 21.8 71.2 47 10 49.9 21.84 0.86
10:48 1023 30.21 852 25.16 22 71.6 47 10.3 50.5 22.02 0.867
10:49 1023 30.21 852 25.16 22.1 71.7 44 9.4 48.9 22 0.866
10:50 1023 30.21 852 25.16 22.1 71.9 48 10.7 51.2 21.92 0.863
10:51 1023 30.21 852 25.16 22.1 71.7 44 9.4 49 21.72 0.855
10:52 1023 30.21 852 25.16 21.9 71.4 49 10.8 51.4 21.54 0.848
10:53 1023 30.21 852 25.16 21.7 71.1 45 9.4 49 21.43 0.844
10:54 1023 30.21 852 25.16 21.6 70.9 48 10.2 50.3 21.47 0.845
10:55 1023 30.21 852 25.16 21.7 71 51 11.3 52.4 21.56 0.849
10:56 1023 30.21 852 25.16 21.8 71.3 52 11.7 53 21.72 0.855
10:57 1023 30.21 852 25.16 21.9 71.5 49 10.9 51.7 21.98 0.865
10:58 1023 30.21 852 25.16 22.1 71.8 46 10.2 50.3 22.22 0.875
10:59 1023 30.21 852 25.16 22.3 72.1 48 10.9 51.7 22.47 0.885
11:00 1023 30.21 852 25.16 22.5 72.5 42 9.1 48.4 22.52 0.887
11:01 1023 30.21 852 25.16 22.4 72.4 43 9.4 49 22.28 0.877
11:02 1023 30.21 852 25.16 22.4 72.3 43 9.5 49.1 22.23 0.875
11:03 1023 30.21 852 25.16 22.5 72.4 42 9.2 48.5 22.39 0.881
11:04 1023 30.21 852 25.16 22.3 72.2 41 8.5 47.4 22.49 0.885
11:05 1023 30.21 852 25.16 22.2 71.9 42 8.9 48 22.57 0.889
11:06 1023 30.21 852 25.16 22.1 71.7 50 11.2 52.2 22.63 0.891
11:07 1023 30.21 852 25.16 21.9 71.5 50 11.2 52.1 22.51 0.886
11:08 1023 30.21 852 25.16 21.8 71.3 45 9.4 49 22.41 0.882
11:09 1023 30.21 852 25.16 21.8 71.2 48 10.5 50.9 22.35 0.88
11:10 1023 30.21 852 25.16 21.7 71.1 48 10.4 50.7 22.37 0.881
11:11 1023 30.21 852 25.16 21.8 71.2 45 9.6 49.2 22.34 0.88
11:12 1023 30.21 852 25.16 21.9 71.3 52 11.7 53.1 22.4 0.882
11:13 1023 30.21 852 25.16 21.9 71.4 44 9.4 48.9 22.45 0.884
11:14 1023 30.21 852 25.16 21.9 71.5 45 9.6 49.4 22.38 0.881
11:15 1023 30.21 852 25.16 22.1 71.7 50 11.4 52.6 22.54 0.887
11:16 1023 30.21 852 25.16 22.2 72 53 12.4 54.3 22.69 0.893
11:17 1023 30.21 852 25.16 22.3 72.2 44 9.6 49.4 22.8 0.898
11:18 1023 30.21 852 25.16 22.4 72.2 43 9.5 49.1 22.82 0.898
11:19 1023 30.21 852 25.16 22.3 72.2 44 9.8 49.6 22.8 0.898
11:20 1023 30.21 852 25.16 22.3 72.2 44 9.6 49.3 22.89 0.901
11:21 1023 30.21 852 25.16 22.5 72.4 47 10.8 51.5 23.11 0.91
11:22 1023 30.21 852 25.16 22.6 72.7 45 10.2 50.4 23.21 0.914
11:23 1023 30.21 852 25.16 22.7 72.8 42 9.2 48.5 23.24 0.915
11:24 1023 30.21 852 25.16 22.6 72.8 42 9.4 48.9 23.26 0.916
11:25 1023 30.21 852 25.16 22.8 73 49 11.8 53.2 23.42 0.922
11:26 1023 30.21 852 25.16 23 73.4 46 11 51.8 23.68 0.932
11:27 1023 30.21 852 25.16 23.2 73.7 47 11.4 52.6 23.8 0.937
11:28 1023 30.21 852 25.16 23.2 73.8 44 10.6 51.1 23.89 0.941
11:29 1023 30.21 852 25.16 23.2 73.7 48 11.9 53.4 23.81 0.937
11:30 1023 30.21 852 25.16 23.1 73.7 48 11.6 52.9 23.77 0.936
11:31 1023 30.21 852 25.16 23 73.4 42 9.4 49 23.62 0.93
11:32 1023 30.21 852 25.16 22.8 73.1 50 11.9 53.4 23.44 0.923
11:33 1023 30.21 852 25.16 22.8 73.1 52 12.6 54.7 23.44 0.923
11:34 1023 30.21 852 25.16 22.8 73 46 10.6 51.1 23.36 0.92
11:35 1023 30.21 852 25.16 22.8 73 44 10.1 50.1 23.39 0.921
11:36 1023 30.21 852 25.16 22.9 73.2 46 10.8 51.5 23.5 0.925
11:37 1023 30.21 852 25.16 22.9 73.2 44 10.3 50.5 23.5 0.925
11:38 1023 30.21 852 25.16 22.8 73 48 11.5 52.7 23.44 0.923
11:39 1023 30.21 852 25.16 22.8 73.1 47 11.2 52.2 23.48 0.924
11:40 1023 30.21 852 25.16 23 73.5 50 12.2 54 23.7 0.933
11:41 1023 30.21 852 25.16 23.3 73.9 42 9.7 49.4 23.82 0.938
11:42 1023 30.21 852 25.16 23.4 74.1 43 10.1 50.3 23.77 0.936
11:43 1023 30.21 852 25.16 23.5 74.4 45 11 51.8 23.92 0.942
11:44 1023 30.21 852 25.16 23.7 74.7 43 10.6 51.2 24.17 0.952
11:45 1023 30.21 852 25.16 23.7 74.7 44 10.9 51.7 24.31 0.957
11:46 1023 30.21 852 25.16 23.6 74.6 42 10.3 50.5 24.25 0.955
11:47 1023 30.21 852 25.16 23.5 74.2 46 11.2 52.2 24.13 0.95
11:48 1023 30.21 852 25.16 23.4 74.2 40 9.1 48.4 24.08 0.948
11:49 1023 30.21 852 25.16 23.4 74.1 41 9.5 49.1 23.87 0.94
11:50 1023 30.21 852 25.16 23.3 74 41 9.4 49 23.82 0.938
11:51 1023 30.21 852 25.16 23.4 74.2 40 9.3 48.8 23.87 0.94
11:52 1023 30.21 852 25.16 23.5 74.4 51 13.1 55.5 24.05 0.947
11:53 1023 30.21 852 25.16 23.6 74.6 40 9.6 49.3 24.23 0.954
11:54 1023 30.21 852 25.16 23.8 74.8 49 12.4 54.4 24.36 0.959
11:55 1023 30.21 852 25.16 23.8 74.8 44 10.9 51.7 24.43 0.962
11:56 1023 30.21 852 25.16 23.7 74.6 43 10.4 50.7 24.28 0.956
11:57 1023 30.21 852 25.16 23.7 74.7 39 9.1 48.4 24.34 0.958
11:58 1023 30.21 852 25.16 23.9 75.1 41 10 49.9 24.52 0.965
11:59 1023 30.21 852 25.16 24.1 75.3 42 10.7 51.2 24.69 0.972
12:00 1023 30.21 852 25.16 24 75.2 45 11.5 52.7 24.61 0.969
12:01 1023 30.21 852 25.16 24.1 75.3 39 9.6 49.3 24.71 0.973
12:02 1023 30.21 852 25.16 24.1 75.4 40 9.7 49.5 24.72 0.973
12:03 1023 30.21 852 25.16 24.1 75.3 45 11.5 52.8 24.69 0.972
12:04 1023 30.21 852 25.16 24.1 75.3 39 9.5 49 24.66 0.971
12:05 1023 30.21 852 25.16 24.1 75.4 52 13.7 56.7 24.66 0.971
12:06 1023 30.21 852 25.16 24.2 75.6 44 11.3 52.4 24.85 0.978
12:07 1023 30.21 852 25.16 24.2 75.5 51 13.5 56.2 24.95 0.982
12:08 1023 30.21 852 25.16 24.2 75.6 47 12.5 54.5 24.92 0.981
12:09 1023 30.21 852 25.16 24.3 75.7 46 12 53.6 24.84 0.978
12:10 1023 30.21 852 25.16 24.2 75.6 41 10.3 50.6 24.72 0.973
12:11 1023 30.21 852 25.16 24.1 75.3 47 12.4 54.2 24.55 0.967
12:12 1022 30.18 852 25.16 24 75.2 40 10 49.9 24.49 0.964
12:13 1022 30.18 852 25.16 24 75.1 41 10.3 50.5 24.48 0.964
12:14 1022 30.18 852 25.16 23.9 75 42 10.5 51 24.45 0.963
12:15 1022 30.18 852 25.16 24 75.1 50 13 55.5 24.52 0.965
12:16 1022 30.18 852 25.16 24 75.1 48 12.5 54.5 24.52 0.965
12:17 1022 30.18 852 25.16 24 75.1 50 13.1 55.6 24.48 0.964
12:18 1022 30.18 852 25.16 24.1 75.3 40 9.9 49.9 24.59 0.968
12:19 1022 30.18 852 25.16 24.1 75.3 51 13.4 56 24.59 0.968
12:20 1022 30.18 852 25.16 24.2 75.5 41 10.2 50.4 24.67 0.971
12:21 1022 30.18 852 25.16 24.1 75.4 41 10.3 50.5 24.68 0.972
12:22 1022 30.18 852 25.16 24.1 75.5 42 10.7 51.3 24.62 0.969
12:23 1022 30.18 852 25.16 24.1 75.3 43 11.1 51.9 24.52 0.965
12:24 1022 30.18 852 25.16 24 75.3 46 11.8 53.2 24.53 0.966
12:25 1022 30.18 852 25.16 24.1 75.3 46 12.1 53.7 24.54 0.966
12:26 1022 30.18 852 25.16 24.2 75.5 43 11.1 51.9 24.67 0.971
12:27 1022 30.18 852 25.16 24.3 75.8 43 11.2 52.1 24.79 0.976
12:28 1022 30.18 852 25.16 24.5 76.1 46 12.4 54.3 24.85 0.978
12:29 1022 30.18 852 25.16 24.7 76.5 43 11.6 52.8 24.92 0.981
12:30 1022 30.18 852 25.16 24.8 76.6 47 13 55.3 24.92 0.981
12:31 1022 30.18 852 25.16 24.8 76.7 37 9.3 48.7 25.05 0.986
12:32 1022 30.18 852 25.16 24.8 76.6 43 11.4 52.5 24.95 0.982
12:33 1022 30.18 852 25.16 24.8 76.6 41 10.7 51.3 25.03 0.985
12:34 1022 30.18 852 25.16 24.8 76.7 39 10.3 50.5 24.97 0.983
12:35 1022 30.18 852 25.16 24.9 76.8 43 11.8 53.2 25.07 0.987
12:36 1022 30.18 852 25.16 24.9 76.9 45 12.3 54.1 25.03 0.985
12:37 1022 30.18 852 25.16 24.9 76.8 37 9.3 48.7 24.99 0.984
12:38 1022 30.18 852 25.16 24.8 76.7 37 9.4 48.9 24.97 0.983
12:39 1022 30.18 852 25.16 24.9 76.9 41 11.1 52 25.07 0.987
12:40 1022 30.18 851 25.13 25 77.1 40 10.7 51.3 25.22 0.993
12:41 1022 30.18 851 25.13 25.2 77.3 39 10.3 50.5 25.25 0.994
12:42 1022 30.18 851 25.13 25.2 77.3 34 8.4 47.2 25.22 0.993
12:43 1022 30.18 851 25.13 25.2 77.4 36 9.3 48.8 25.26 0.994
12:44 1022 30.18 851 25.13 25.1 77.1 39 10.2 50.4 25.37 0.999
12:45 1022 30.18 851 25.13 25.1 77.2 46 12.8 55 25.47 1.003
12:46 1022 30.18 851 25.13 25.2 77.3 39 10.5 50.8 25.61 1.008
12:47 1022 30.18 851 25.13 25.3 77.5 37 9.8 49.6 25.75 1.014
12:48 1022 30.18 851 25.13 25.4 77.7 37 10 50 25.75 1.014
12:49 1022 30.18 851 25.13 25.5 77.9 32 7.9 46.3 25.7 1.012
12:50 1022 30.18 851 25.13 25.4 77.8 39 10.9 51.6 25.54 1.006
12:51 1022 30.18 851 25.13 25.5 77.8 36 9.5 49.1 25.79 1.015
12:52 1022 30.18 851 25.13 25.5 77.9 35 9.2 48.6 25.81 1.016
12:53 1022 30.18 851 25.13 25.5 77.8 33 8.4 47.2 25.68 1.011
12:54 1022 30.18 851 25.13 25.5 77.8 39 10.8 51.4 25.66 1.01
12:55 1022 30.18 851 25.13 25.5 78 35 9.3 48.8 25.7 1.012
12:56 1022 30.18 851 25.13 25.5 77.9 33 8.1 46.6 25.55 1.006
12:57 1022 30.18 851 25.13 25.5 77.8 33 8.1 46.6 25.45 1.002
12:58 1022 30.18 851 25.13 25.4 77.8 34 8.7 47.7 25.55 1.006
12:59 1022 30.18 851 25.13 25.4 77.8 40 11.2 52.2 25.61 1.008
13:00 1022 30.18 851 25.13 25.4 77.7 38 10.5 50.8 25.61 1.008
13:01 1022 30.18 851 25.13 25.4 77.8 36 9.5 49.2 25.68 1.011
13:02 1022 30.18 851 25.13 25.5 77.8 31 7.5 45.4 25.75 1.014
13:03 1022 30.18 851 25.13 25.4 77.8 34 8.7 47.6 25.78 1.015
13:04 1022 30.18 851 25.13 25.6 78 40 11.3 52.3 25.96 1.022
13:05 1022 30.18 851 25.13 25.6 78.1 32 7.8 46.1 26.09 1.027
13:06 1022 30.18 851 25.13 25.6 78.1 34 8.7 47.6 26.07 1.026
13:07 1022 30.18 851 25.13 25.7 78.2 36 9.8 49.7 26.13 1.029
13:08 1022 30.18 851 25.13 25.7 78.3 43 12.4 54.4 26.16 1.03
13:09 1022 30.18 851 25.13 25.8 78.5 37 10.2 50.4 26.2 1.031
13:10 1022 30.18 851 25.13 25.9 78.6 36 9.7 49.5 26.31 1.036
13:11 1022 30.18 851 25.13 26 78.7 32 8.3 46.9 26.27 1.034
13:12 1022 30.18 851 25.13 26 78.9 35 9.7 49.5 26.17 1.03
13:13 1022 30.18 851 25.13 26.1 78.9 33 8.7 47.7 26.12 1.028
13:14 1022 30.18 851 25.13 26.1 78.9 39 11.4 52.6 26.12 1.028
13:15 1022 30.18 851 25.13 26.1 79 42 12.5 54.5 26.23 1.033
13:16 1022 30.18 851 25.13 26.2 79.1 32 8.5 47.4 26.28 1.035
13:17 1022 30.18 851 25.13 26.3 79.3 36 10.2 50.3 26.33 1.037
13:18 1022 30.18 851 25.13 26.3 79.3 41 12.1 53.8 26.4 1.039
13:19 1022 30.18 851 25.13 26.3 79.4 44 13.2 55.8 26.44 1.041
13:20 1022 30.18 851 25.13 26.2 79.2 35 9.9 49.7 26.41 1.04
13:21 1022 30.18 851 25.13 26 78.8 41 12.1 53.8 26.25 1.033
13:22 1022 30.18 851 25.13 25.9 78.6 44 13.1 55.6 26.17 1.03
13:23 1022 30.18 851 25.13 25.8 78.4 37 10.4 50.8 26.15 1.03
13:24 1022 30.18 851 25.13 25.8 78.5 41 11.7 53.1 26.2 1.031
13:25 1022 30.18 851 25.13 25.9 78.5 39 11 51.8 26.24 1.033
13:26 1022 30.18 851 25.13 25.9 78.6 42 12.2 54 26.38 1.039
13:27 1022 30.18 851 25.13 26.1 79 34 9.1 48.4 26.5 1.043
13:28 1022 30.18 851 25.13 26.2 79.1 42 12.3 54.2 26.62 1.048
13:29 1022 30.18 851 25.13 26.3 79.3 36 10.2 50.4 26.78 1.054
13:30 1022 30.18 851 25.13 26.3 79.3 45 13.7 56.6 26.74 1.053
13:31 1022 30.18 851 25.13 26.3 79.3 35 9.8 49.6 26.72 1.052
13:32 1022 30.18 851 25.13 26.2 79.2 38 10.9 51.7 26.67 1.05
13:33 1022 30.18 851 25.13 26.3 79.3 35 10 50 26.71 1.052
13:34 1022 30.18 851 25.13 26.3 79.4 35 9.9 49.7 26.8 1.055
13:35 1022 30.18 851 25.13 26.3 79.4 44 13.4 56.2 26.87 1.058
13:36 1022 30.18 851 25.13 26.4 79.5 38 11 51.8 26.91 1.059
13:37 1022 30.18 851 25.13 26.5 79.6 33 9.3 48.7 26.9 1.059
13:38 1022 30.18 851 25.13 26.5 79.6 33 9 48.1 26.75 1.053
13:39 1022 30.18 851 25.13 26.4 79.6 33 9.2 48.6 26.73 1.052
13:40 1022 30.18 851 25.13 26.5 79.8 32 8.6 47.5 26.74 1.053
13:41 1022 30.18 851 25.13 26.6 79.8 32 9 48.2 26.75 1.053
13:42 1022 30.18 851 25.13 26.7 80 39 11.8 53.2 26.89 1.059
13:43 1022 30.18 851 25.13 26.8 80.3 34 9.9 49.8 26.96 1.061
13:44 1022 30.18 851 25.13 26.9 80.4 35 10.6 51 26.95 1.061
13:45 1022 30.18 851 25.13 26.9 80.4 39 12.1 53.8 26.95 1.061
13:46 1022 30.18 851 25.13 26.9 80.5 30 8.2 46.7 27.05 1.065
13:47 1022 30.18 851 25.13 26.9 80.5 32 9 48.1 27.08 1.066
13:48 1021 30.15 851 25.13 27 80.5 30 8.3 47 27.26 1.073
13:49 1021 30.15 851 25.13 26.9 80.5 37 11.1 52 27.43 1.08
13:50 1021 30.15 851 25.13 27 80.6 33 9.7 49.5 27.62 1.087
13:51 1021 30.15 851 25.13 27.2 80.9 32 9.5 49.2 27.76 1.093
13:52 1021 30.15 851 25.13 27.2 81 30 8.2 46.8 27.76 1.093
13:53 1021 30.15 851 25.13 27.3 81.1 32 9.2 48.6 27.8 1.094
13:54 1021 30.15 851 25.13 27.4 81.3 38 12.3 54.1 27.85 1.096
13:55 1021 30.15 851 25.13 27.6 81.7 31 9.2 48.6 28.05 1.104
13:56 1021 30.15 851 25.13 27.8 82.1 36 11.5 52.7 28.19 1.11
13:57 1021 30.15 851 25.13 27.9 82.2 31 9.4 48.9 28.17 1.109
13:58 1021 30.15 851 25.13 27.9 82.1 40 13.3 55.9 28.06 1.105
13:59 1021 30.15 851 25.13 27.8 82.1 32 10 50.1 27.95 1.1
14:00 1021 30.15 851 25.13 27.8 82 37 11.9 53.4 27.83 1.096
14:01 1021 30.15 851 25.13 27.8 82 27 7.6 45.7 27.81 1.095
14:02 1021 30.15 851 25.13 27.8 82 31 9.1 48.5 27.73 1.092
14:03 1021 30.15 851 25.13 27.7 81.9 31 9.5 49.1 27.78 1.094
14:04 1021 30.15 851 25.13 27.8 82.1 34 10.9 51.7 27.77 1.093
14:05 1021 30.15 851 25.13 27.9 82.2 28 7.9 46.2 27.93 1.1
14:06 1021 30.15 851 25.13 28 82.3 30 8.9 48.1 28.06 1.105
14:07 1021 30.15 851 25.13 28.1 82.5 38 12.8 55 28.3 1.114
14:08 1021 30.15 851 25.13 28.3 83 28 8.1 46.6 28.6 1.126
14:09 1021 30.15 851 25.13 28.5 83.3 27 8.2 46.7 28.45 1.12
14:10 1021 30.15 851 25.13 28.4 83.1 29 8.8 47.8 28.36 1.117
14:11 1021 30.15 851 25.13 28.4 83.1 31 9.8 49.6 28.45 1.12
14:12 1021 30.15 851 25.13 28.3 83 29 9.1 48.4 28.51 1.122
14:13 1021 30.15 851 25.13 28.3 82.9 29 8.8 47.9 28.51 1.122
14:14 1021 30.15 851 25.13 28.3 82.9 39 13.4 56.1 28.49 1.122
14:15 1021 30.15 850 25.1 28.3 83 34 11.3 52.4 28.55 1.124
14:16 1021 30.15 850 25.1 28.2 82.8 28 8.2 46.8 28.46 1.12
14:17 1021 30.15 850 25.1 28 82.5 29 8.6 47.6 28.31 1.115
14:18 1021 30.15 850 25.1 28 82.5 31 9.7 49.5 28.41 1.119
14:19 1021 30.15 850 25.1 28.2 82.7 30 9.4 48.9 28.51 1.122
14:20 1021 30.15 850 25.1 28.3 83 28 8.4 47.2 28.52 1.123
14:21 1021 30.15 850 25.1 28.5 83.2 30 9.7 49.5 28.67 1.129
14:22 1021 30.15 850 25.1 28.6 83.5 35 11.8 53.3 28.89 1.137
14:23 1021 30.15 850 25.1 28.7 83.6 33 11 51.7 28.9 1.138
14:24 1021 30.15 850 25.1 28.7 83.7 27 8.3 46.9 28.8 1.134
14:25 1021 30.15 850 25.1 28.7 83.7 27 8.3 46.9 28.79 1.133
14:26 1021 30.15 850 25.1 28.6 83.5 28 8.5 47.3 28.71 1.13
14:27 1021 30.15 850 25.1 28.5 83.3 32 10.5 51 28.71 1.13
14:28 1021 30.15 850 25.1 28.5 83.2 36 12.2 53.9 28.7 1.13
14:29 1021 30.15 850 25.1 28.5 83.3 27 8.2 46.7 28.7 1.13
14:30 1021 30.15 850 25.1 28.5 83.2 29 9 48.2 28.66 1.128
14:31 1021 30.15 850 25.1 28.5 83.3 27 7.8 46.1 28.74 1.131
14:32 1021 30.15 850 25.1 28.6 83.5 29 9.4 48.8 28.96 1.14
14:33 1021 30.15 850 25.1 28.7 83.7 26 7.7 45.9 29.1 1.146
14:34 1021 30.15 850 25.1 28.9 84 32 11 51.8 29.25 1.152
14:35 1021 30.15 850 25.1 29 84.2 26 7.9 46.3 29.45 1.159
14:36 1021 30.15 850 25.1 29 84.2 26 8.2 46.7 29.49 1.161
14:37 1021 30.15 850 25.1 29.1 84.4 32 11.2 52.1 29.59 1.165
14:38 1021 30.15 850 25.1 29.3 84.8 30 10.2 50.4 29.83 1.174
14:39 1021 30.15 850 25.1 29.6 85.2 31 11 51.9 29.98 1.18
14:40 1021 30.15 850 25.1 29.8 85.6 33 12.1 53.8 30.15 1.187
14:41 1021 30.15 850 25.1 30 85.9 26 8.5 47.3 30.31 1.193
14:42 1021 30.15 850 25.1 29.9 85.9 30 10.9 51.6 30.17 1.188
14:43 1021 30.15 850 25.1 29.9 85.8 31 11.1 52 30.06 1.183
14:44 1021 30.15 850 25.1 29.9 85.9 33 12 53.6 29.94 1.179
14:45 1021 30.15 850 25.1 30 86 28 10 49.9 30.06 1.183
14:46 1021 30.15 850 25.1 30.1 86.1 27 9.2 48.5 30.13 1.186
14:47 1021 30.15 850 25.1 30 85.9 26 8.8 47.8 30.06 1.183
14:48 1021 30.15 850 25.1 29.8 85.6 33 11.9 53.3 29.72 1.17
14:49 1021 30.15 850 25.1 29.7 85.4 32 11.6 52.9 29.66 1.168
14:50 1021 30.15 850 25.1 29.6 85.3 28 9.3 48.7 29.67 1.168
14:51 1021 30.15 850 25.1 29.6 85.3 25 8 46.4 29.57 1.164
14:52 1021 30.15 850 25.1 29.4 85 24 7.1 44.8 29.41 1.158
14:53 1021 30.15 850 25.1 29.3 84.7 27 8.6 47.4 29.49 1.161
14:54 1021 30.15 850 25.1 29.2 84.6 26 8.3 46.9 29.62 1.166
14:55 1021 30.15 850 25.1 29.2 84.5 27 8.8 47.8 29.73 1.17
14:56 1021 30.15 850 25.1 29.4 84.8 29 9.6 49.3 29.95 1.179
14:57 1021 30.15 850 25.1 29.5 85.2 25 7.9 46.2 30.12 1.186
14:58 1021 30.15 850 25.1 29.7 85.5 28 9.7 49.5 30.15 1.187
14:59 1021 30.15 850 25.1 29.7 85.5 32 11.5 52.7 30.35 1.195
15:00 1021 30.15 850 25.1 29.7 85.5 31 11.1 52 30.3 1.193
15:01 1021 30.15 850 25.1 29.7 85.4 26 8.4 47.1 30.23 1.19
15:02 1021 30.15 850 25.1 29.7 85.5 27 8.9 48.1 30.11 1.185
15:03 1021 30.15 850 25.1 29.7 85.5 26 8.6 47.5 30.11 1.185
15:04 1021 30.15 850 25.1 29.7 85.5 32 11.5 52.6 30.14 1.187
15:05 1021 30.15 850 25.1 29.8 85.6 31 11.4 52.5 30.2 1.189
15:06 1021 30.15 850 25.1 29.7 85.5 25 7.9 46.2 30.07 1.184
15:07 1021 30.15 850 25.1 29.6 85.3 25 7.9 46.1 29.89 1.177
15:08 1021 30.15 850 25.1 29.5 85.2 25 7.5 45.5 29.83 1.174
15:09 1021 30.15 850 25.1 29.5 85.1 25 8 46.4 29.83 1.174
15:10 1021 30.15 850 25.1 29.5 85.1 25 7.7 45.8 29.83 1.174
15:11 1021 30.15 850 25.1 29.6 85.3 27 9.1 48.3 29.98 1.18
15:12 1021 30.15 850 25.1 29.9 85.8 29 10.2 50.4 30.27 1.192
15:13 1021 30.15 850 25.1 30.1 86.2 27 9.2 48.6 30.42 1.198
15:14 1020 30.12 850 25.1 30.4 86.6 27 9.7 49.5 30.59 1.204
15:15 1020 30.12 850 25.1 30.5 86.9 31 11.8 53.3 30.84 1.214
15:16 1020 30.12 850 25.1 30.7 87.2 28 10.5 50.9 31.13 1.226
15:17 1020 30.12 850 25.1 30.7 87.2 30 11.3 52.3 31.22 1.229
15:18 1020 30.12 850 25.1 30.8 87.4 30 11.6 53 31.36 1.235
15:19 1020 30.12 850 25.1 30.8 87.5 25 9.1 48.4 31.31 1.233
15:20 1020 30.12 850 25.1 30.9 87.6 29 11.1 52 31.2 1.228
15:21 1020 30.12 850 25.1 31 87.7 23 7.9 46.2 31.14 1.226
15:22 1020 30.12 850 25.1 31.1 87.9 32 12.8 55.1 31.15 1.226
15:23 1020 30.12 850 25.1 31.2 88.1 30 11.8 53.3 31.27 1.231
15:24 1020 30.12 850 25.1 31.2 88.2 29 11.7 53 31.3 1.232
15:25 1020 30.12 850 25.1 31.2 88.2 27 10.3 50.5 31.35 1.234
15:26 1020 30.12 850 25.1 31.3 88.3 29 11.3 52.3 31.29 1.232
15:27 1020 30.12 850 25.1 31.3 88.3 30 12.2 54 31.2 1.228
15:28 1020 30.12 850 25.1 31.3 88.3 30 12.2 54 31.23 1.23
15:29 1020 30.12 850 25.1 31.2 88.1 24 8.4 47 31.05 1.222
15:30 1020 30.12 850 25.1 30.9 87.6 25 9.1 48.3 30.85 1.215
15:31 1020 30.12 850 25.1 30.8 87.4 25 8.7 47.6 30.8 1.213
15:32 1020 30.12 850 25.1 30.7 87.2 24 8 46.4 30.8 1.213
15:33 1020 30.12 849 25.07 30.5 87 24 8.1 46.5 30.74 1.21
15:34 1020 30.12 849 25.07 30.5 87 26 9.4 48.9 30.79 1.212
15:35 1020 30.12 849 25.07 30.7 87.3 26 9.2 48.6 30.99 1.22
15:36 1020 30.12 849 25.07 30.7 87.3 24 8 46.4 31.09 1.224
15:37 1020 30.12 849 25.07 30.8 87.4 24 8.4 47.1 31.17 1.227
15:38 1020 30.12 849 25.07 30.9 87.5 29 11.3 52.3 31.34 1.234
15:39 1020 30.12 849 25.07 30.7 87.3 27 10 49.9 31.14 1.226
15:40 1020 30.12 849 25.07 30.7 87.2 24 8.4 47.1 30.93 1.218
15:41 1020 30.12 849 25.07 30.6 87.2 24 8.3 46.9 30.79 1.212
15:42 1020 30.12 849 25.07 30.7 87.3 33 12.7 54.9 30.8 1.213
15:43 1020 30.12 849 25.07 30.8 87.4 25 9 48.2 30.81 1.213
15:44 1020 30.12 849 25.07 30.8 87.4 26 9.5 49.1 30.82 1.213
15:45 1020 30.12 849 25.07 30.9 87.5 32 12.4 54.4 30.92 1.217
15:46 1020 30.12 849 25.07 30.8 87.5 27 9.9 49.9 30.87 1.215
15:47 1020 30.12 849 25.07 30.7 87.3 28 10.6 51.2 30.78 1.212
15:48 1020 30.12 849 25.07 30.7 87.2 23 7.3 45.2 30.7 1.209
15:49 1020 30.12 849 25.07 30.7 87.3 33 13.1 55.5 30.72 1.209
15:50 1020 30.12 849 25.07 30.8 87.5 27 10.3 50.5 30.95 1.219
15:51 1020 30.12 849 25.07 30.9 87.6 29 11.3 52.3 30.87 1.215
15:52 1020 30.12 849 25.07 30.9 87.6 20 5.7 42.2 30.74 1.21
15:53 1020 30.12 849 25.07 30.8 87.5 22 6.8 44.3 30.6 1.205
15:54 1020 30.12 849 25.07 30.7 87.3 21 6.2 43.1 30.6 1.205
15:55 1020 30.12 849 25.07 30.7 87.2 22 6.6 43.9 30.52 1.202
15:56 1020 30.12 849 25.07 30.6 87 22 6.7 44 30.53 1.202
15:57 1020 30.12 849 25.07 30.6 87 22 6.6 43.9 30.55 1.203
15:58 1020 30.12 849 25.07 30.6 87 21 6.2 43.1 30.67 1.207
15:59 1020 30.12 849 25.07 30.6 87.1 25 8.8 47.8 30.85 1.215
16:00 1020 30.12 849 25.07 30.8 87.4 25 8.8 47.9 31.17 1.227
16:01 1020 30.12 849 25.07 31.1 87.9 28 10.5 50.9 31.45 1.238
16:02 1020 30.12 849 25.07 31.2 88.2 29 11.3 52.4 31.64 1.246
16:03 1020 30.12 849 25.07 31.3 88.3 31 12.6 54.6 31.85 1.254
16:04 1020 30.12 849 25.07 31.3 88.3 22 7.3 45.1 31.94 1.257
16:05 1020 30.12 849 25.07 31.3 88.3 22 7.2 44.9 31.81 1.252
16:06 1020 30.12 849 25.07 31.3 88.3 24 8.8 47.9 31.77 1.251
16:07 1020 30.12 849 25.07 31.3 88.3 21 6.7 44.1 31.75 1.25
16:08 1020 30.12 849 25.07 31.3 88.3 26 10.1 50.1 31.75 1.25
16:09 1020 30.12 849 25.07 31.4 88.5 25 9.4 48.9 31.88 1.255
16:10 1020 30.12 849 25.07 31.3 88.4 27 10.4 50.8 31.82 1.253
16:11 1020 30.12 849 25.07 31.3 88.4 23 8.1 46.7 31.78 1.251
16:12 1020 30.12 849 25.07 31.2 88.2 22 7.4 45.3 31.74 1.25
16:13 1020 30.12 849 25.07 31.2 88.2 25 9.4 49 31.69 1.248
16:14 1020 30.12 849 25.07 31.3 88.4 30 12.2 53.9 31.87 1.255
16:15 1020 30.12 849 25.07 31.4 88.5 21 6.5 43.7 31.85 1.254
16:16 1020 30.12 849 25.07 31.4 88.6 26 9.7 49.5 31.98 1.259
16:17 1020 30.12 849 25.07 31.6 88.9 26 10 50 32.3 1.272
16:18 1020 30.12 849 25.07 31.7 89 28 11.5 52.7 32.36 1.274
16:19 1020 30.12 849 25.07 31.6 89 27 10.9 51.6 32.36 1.274
16:20 1020 30.12 849 25.07 31.5 88.7 34 14 57.3 32.29 1.271
16:21 1020 30.12 849 25.07 31.4 88.5 22 7.4 45.2 32.05 1.262
16:22 1020 30.12 849 25.07 31.2 88.2 24 8.9 48 31.81 1.252
16:23 1020 30.12 849 25.07 31.2 88.1 33 13.5 56.3 31.74 1.25
16:24 1020 30.12 849 25.07 31.2 88.2 27 10.5 50.9 31.8 1.252
16:25 1020 30.12 849 25.07 31.3 88.3 26 9.8 49.6 31.88 1.255
16:26 1020 30.12 849 25.07 31.3 88.3 23 8.2 46.8 31.8 1.252
16:27 1020 30.12 849 25.07 31.2 88.2 25 9.5 49.1 31.66 1.246
16:28 1020 30.12 849 25.07 31.1 88.1 27 10.3 50.6 31.57 1.243
16:29 1020 30.12 849 25.07 31.1 88 31 12.1 53.8 31.56 1.243
16:30 1020 30.12 849 25.07 31.1 88 33 13.1 55.6 31.63 1.245
16:31 1020 30.12 849 25.07 31.1 87.9 30 12.1 53.7 31.52 1.241
16:32 1020 30.12 849 25.07 31.1 87.9 23 8.2 46.7 31.61 1.244
16:33 1020 30.12 849 25.07 31.1 88 23 7.9 46.2 31.65 1.246
16:34 1020 30.12 849 25.07 31.3 88.3 31 12.3 54.1 31.91 1.256
16:35 1020 30.12 849 25.07 31.4 88.5 30 11.9 53.4 31.9 1.256
16:36 1020 30.12 849 25.07 31.3 88.4 21 6.6 43.9 31.79 1.252
16:37 1019 30.09 849 25.07 31.2 88.2 21 6.7 44 31.67 1.247
16:38 1019 30.09 849 25.07 31.3 88.3 25 9.4 48.9 31.71 1.248
16:39 1019 30.09 849 25.07 31.3 88.4 19 5.5 41.9 31.84 1.254
16:40 1019 30.09 849 25.07 31.3 88.4 19 5.1 41.2 31.81 1.252
16:41 1019 30.09 849 25.07 31.3 88.4 21 6.5 43.7 31.92 1.257
16:42 1019 30.09 849 25.07 31.4 88.5 21 7.1 44.9 32.06 1.262
16:43 1019 30.09 849 25.07 31.5 88.7 24 9 48.3 32.2 1.268
16:44 1019 30.09 849 25.07 31.6 88.9 26 10.1 50.2 32.34 1.273
16:45 1019 30.09 849 25.07 31.7 89.1 29 11.9 53.4 32.37 1.274
16:46 1019 30.09 848 25.04 31.7 89.1 23 8.2 46.8 32.4 1.276
16:47 1019 30.09 848 25.04 31.6 88.9 21 7.3 45.1 32.36 1.274
16:48 1019 30.09 848 25.04 31.7 89 22 7.6 45.6 32.53 1.281
16:49 1019 30.09 848 25.04 31.7 89.1 19 5.7 42.3 32.38 1.275
16:50 1019 30.09 848 25.04 31.7 89 27 10.5 50.9 32.16 1.266
16:51 1019 30.09 848 25.04 31.6 88.8 21 7.1 44.8 32.05 1.262
16:52 1019 30.09 848 25.04 31.5 88.7 23 8.3 47 31.92 1.257
16:53 1019 30.09 848 25.04 31.6 88.8 31 12.7 54.9 31.88 1.255
16:54 1019 30.09 848 25.04 31.6 88.9 28 11.2 52.1 31.97 1.259
16:55 1019 30.09 848 25.04 31.7 89.1 28 11.3 52.3 31.99 1.259
16:56 1019 30.09 848 25.04 31.8 89.3 26 10.1 50.2 32.07 1.263
16:57 1019 30.09 848 25.04 31.9 89.3 26 10.1 50.2 32.18 1.267
16:58 1019 30.09 848 25.04 31.8 89.3 20 6.6 43.8 32.24 1.269
16:59 1019 30.09 848 25.04 31.8 89.3 24 9.1 48.3 32.38 1.275
17:00 1019 30.09 848 25.04 31.7 89.1 28 11.3 52.4 32.39 1.275
17:01 1019 30.09 848 25.04 31.5 88.8 27 10.4 50.8 32.24 1.269
17:02 1019 30.09 848 25.04 31.4 88.5 27 10.3 50.6 32.16 1.266
17:03 1019 30.09 848 25.04 31.3 88.4 25 9.1 48.3 32.11 1.264
17:04 1019 30.09 848 25.04 31.4 88.5 32 13.1 55.6 32.09 1.263
17:05 1019 30.09 848 25.04 31.4 88.4 28 10.9 51.6 32.12 1.265
17:06 1019 30.09 848 25.04 31.3 88.4 23 8.4 47 31.93 1.257
17:07 1019 30.09 848 25.04 31.4 88.4 21 6.9 44.4 31.87 1.255
17:08 1019 30.09 848 25.04 31.3 88.3 29 11.5 52.7 31.81 1.252
17:09 1019 30.09 848 25.04 31.3 88.3 30 12.1 53.8 31.72 1.249
17:10 1019 30.09 848 25.04 31.3 88.3 20 6.2 43.2 31.68 1.247
17:11 1019 30.09 848 25.04 31.3 88.3 24 8.5 47.3 31.61 1.244
17:12 1019 30.09 848 25.04 31.2 88.2 28 10.7 51.3 31.53 1.241
17:13 1019 30.09 848 25.04 31.2 88.1 30 11.9 53.5 31.48 1.239
17:14 1019 30.09 848 25.04 31.1 88 21 6.4 43.6 31.34 1.234
17:15 1019 30.09 848 25.04 31.2 88.1 27 10.5 50.9 31.36 1.235
17:16 1019 30.09 848 25.04 31.1 88 21 6.6 43.8 31.27 1.231
17:17 1019 30.09 848 25.04 31 87.9 24 8.4 47.2 31.26 1.231
17:18 1019 30.09 848 25.04 31 87.8 25 8.8 47.8 31.19 1.228
17:19 1019 30.09 848 25.04 31 87.7 26 9.9 49.8 31.17 1.227
17:20 1019 30.09 848 25.04 31 87.8 21 6.4 43.5 31.23 1.23
17:21 1019 30.09 848 25.04 31.1 87.9 20 6.1 42.9 31.31 1.233
17:22 1019 30.09 848 25.04 31.3 88.3 24 8.6 47.6 31.5 1.24
17:23 1019 30.09 848 25.04 31.3 88.4 24 8.7 47.7 31.56 1.243
17:24 1019 30.09 848 25.04 31.4 88.5 25 9.6 49.3 31.58 1.243
17:25 1019 30.09 848 25.04 31.5 88.6 27 10.5 50.9 31.69 1.248
17:26 1019 30.09 848 25.04 31.5 88.7 27 10.5 51 31.66 1.246
17:27 1019 30.09 848 25.04 31.6 88.8 19 5.8 42.4 31.74 1.25
17:28 1019 30.09 848 25.04 31.5 88.7 26 9.8 49.7 31.65 1.246
17:29 1019 30.09 848 25.04 31.5 88.6 27 10.5 50.9 31.56 1.243
17:30 1019 30.09 848 25.04 31.4 88.4 33 13.5 56.3 31.49 1.24
17:31 1019 30.09 848 25.04 31.2 88.2 30 12 53.6 31.33 1.233
17:32 1019 30.09 848 25.04 31.1 88 18 4.4 39.9 31.2 1.228
17:33 1019 30.09 848 25.04 31.1 87.9 23 8.1 46.6 31.23 1.23
17:34 1019 30.09 848 25.04 31.2 88.1 27 10.1 50.3 31.39 1.236
17:35 1019 30.09 848 25.04 31.2 88.1 26 10 50 31.31 1.233
17:36 1019 30.09 848 25.04 31.2 88.1 22 7.1 44.7 31.32 1.233
17:37 1019 30.09 848 25.04 31.2 88.2 26 9.8 49.7 31.36 1.235
17:38 1019 30.09 848 25.04 31.3 88.3 29 11.4 52.5 31.4 1.236
17:39 1019 30.09 848 25.04 31.3 88.3 27 10.3 50.6 31.35 1.234
17:40 1019 30.09 848 25.04 31.2 88.1 27 10.4 50.7 31.28 1.231
17:41 1019 30.09 848 25.04 31.1 88 27 10.2 50.4 31.29 1.232
17:42 1019 30.09 848 25.04 31.1 88.1 24 8.7 47.7 31.27 1.231
17:43 1018 30.06 848 25.04 31.2 88.1 22 7.4 45.4 31.34 1.234
17:44 1018 30.06 848 25.04 31.3 88.3 20 5.9 42.7 31.44 1.238
17:45 1018 30.06 848 25.04 31.3 88.4 20 6 42.9 31.52 1.241
17:46 1018 30.06 848 25.04 31.4 88.6 24 8.8 47.8 31.67 1.247
17:47 1018 30.06 848 25.04 31.5 88.6 18 4.4 39.9 31.68 1.247
17:48 1018 30.06 848 25.04 31.5 88.7 24 8.9 48 31.77 1.251
17:49 1018 30.06 848 25.04 31.5 88.7 24 9.1 48.4 31.71 1.248
17:50 1018 30.06 848 25.04 31.5 88.6 20 6.4 43.5 31.65 1.246
17:51 1018 30.06 848 25.04 31.4 88.5 25 9.5 49.1 31.63 1.245
17:52 1018 30.06 848 25.04 31.4 88.5 21 6.5 43.7 31.57 1.243
17:53 1018 30.06 847 25.01 31.4 88.5 17 4 39.1 31.58 1.243
17:54 1018 30.06 848 25.04 31.5 88.6 24 8.8 47.9 31.72 1.249
17:55 1018 30.06 848 25.04 31.6 88.8 23 8.5 47.3 31.8 1.252
17:56 1018 30.06 847 25.01 31.6 88.9 22 7.7 45.9 31.81 1.252
17:57 1018 30.06 848 25.04 31.6 88.9 24 8.9 48.1 31.87 1.255
17:58 1018 30.06 847 25.01 31.6 88.9 20 6.1 43 31.79 1.252
17:59 1018 30.06 847 25.01 31.6 88.9 24 9.2 48.6 31.79 1.252
18:00 1018 30.06 847 25.01 31.6 88.9 17 4.3 39.8 31.76 1.25
18:01 1018 30.06 847 25.01 31.6 88.8 20 6.2 43.2 31.76 1.25
18:02 1018 30.06 847 25.01 31.7 89 17 4.2 39.6 31.84 1.254
18:03 1018 30.06 847 25.01 31.6 89 19 5.4 41.7 31.77 1.251
18:04 1018 30.06 847 25.01 31.7 89 20 6.3 43.4 31.88 1.255
18:05 1018 30.06 847 25.01 31.7 89 20 6.6 43.8 31.86 1.254
18:06 1018 30.06 847 25.01 31.8 89.2 20 6.6 43.9 32.01 1.26
18:07 1018 30.06 847 25.01 31.8 89.2 25 9.9 49.8 32.12 1.265
18:08 1018 30.06 847 25.01 31.8 89.2 28 11.2 52.1 32.25 1.27
18:09 1018 30.06 847 25.01 31.7 89 28 11.5 52.7 32.27 1.27
18:10 1018 30.06 847 25.01 31.6 88.9 26 9.9 49.9 32.18 1.267
18:11 1018 30.06 847 25.01 31.6 88.9 26 10.2 50.4 32.09 1.263
18:12 1018 30.06 847 25.01 31.6 88.9 22 7.7 45.9 31.99 1.259
18:13 1018 30.06 847 25.01 31.6 88.8 21 6.7 44.1 31.95 1.258
18:14 1018 30.06 847 25.01 31.6 88.8 26 10 49.9 31.88 1.255
18:15 1018 30.06 847 25.01 31.5 88.8 27 10.6 51.2 31.91 1.256
18:16 1018 30.06 847 25.01 31.6 88.8 20 6.5 43.7 31.76 1.25
18:17 1018 30.06 847 25.01 31.5 88.8 18 4.9 40.8 31.81 1.252
18:18 1018 30.06 847 25.01 31.7 89 26 10.2 50.4 31.97 1.259
18:19 1018 30.06 847 25.01 31.7 89.1 25 9.5 49.1 32.1 1.264
18:20 1018 30.06 847 25.01 31.5 88.8 27 10.8 51.5 32.21 1.268
18:21 1018 30.06 847 25.01 31.3 88.3 29 11.6 52.8 32.18 1.267
18:22 1018 30.06 847 25.01 31.1 88 28 10.8 51.4 32.02 1.261
18:23 1018 30.06 847 25.01 31 87.9 33 13.3 55.9 31.97 1.259
18:24 1018 30.06 847 25.01 31 87.9 31 12.1 53.7 31.99 1.259
18:25 1018 30.06 847 25.01 31 87.8 30 11.7 53.1 31.98 1.259
18:26 1018 30.06 847 25.01 31 87.7 32 12.7 54.9 32 1.26
18:27 1018 30.06 847 25.01 30.9 87.6 32 12.4 54.4 31.92 1.257
18:28 1018 30.06 847 25.01 30.8 87.5 30 11.4 52.5 31.76 1.25
18:29 1018 30.06 847 25.01 30.8 87.4 41 16.2 61.2 31.68 1.247
18:30 1018 30.06 847 25.01 30.8 87.5 43 17.2 63 31.75 1.25
18:31 1018 30.06 847 25.01 30.8 87.5 36 14.4 57.9 31.58 1.243
18:32 1018 30.06 847 25.01 30.9 87.5 32 12.7 54.9 31.4 1.236
18:33 1018 30.06 847 25.01 30.9 87.5 27 10.1 50.2 31.25 1.23
18:34 1018 30.06 847 25.01 30.9 87.5 27 9.8 49.7 31.26 1.231
18:35 1018 30.06 847 25.01 30.9 87.6 30 11.6 52.9 31.24 1.23
18:36 1018 30.06 847 25.01 30.9 87.7 30 11.7 53 31.23 1.23
18:37 1018 30.06 847 25.01 30.9 87.6 30 11.8 53.2 31.16 1.227
18:38 1018 30.06 847 25.01 30.9 87.6 35 13.9 57 31.28 1.231
18:39 1018 30.06 847 25.01 30.8 87.5 41 16.3 61.3 31.43 1.237
18:40 1018 30.06 847 25.01 30.7 87.2 41 16.1 60.9 31.43 1.237
18:41 1018 30.06 847 25.01 30.5 86.8 32 12.2 53.9 31.23 1.23
18:42 1018 30.06 847 25.01 30.3 86.5 33 12.5 54.6 31 1.22
18:43 1018 30.06 847 25.01 30.1 86.2 28 10.1 50.2 30.73 1.21
18:44 1018 30.06 847 25.01 29.8 85.6 28 9.9 49.8 30.19 1.189
18:45 1018 30.06 847 25.01 29.3 84.8 30 10.3 50.5 29.71 1.17
18:46 1018 30.06 847 25.01 28.9 84.1 30 10 49.9 29.32 1.154
18:47 1018 30.06 847 25.01 28.6 83.4 32 10.4 50.7 28.92 1.139
18:48 1018 30.06 847 25.01 28.2 82.8 35 11.7 53 28.59 1.126
18:49 1018 30.06 847 25.01 27.7 81.9 35 11.4 52.4 28.1 1.106
18:50 1018 30.06 847 25.01 27.4 81.2 36 11.1 51.9 27.76 1.093
18:51 1018 30.06 847 25.01 27.1 80.7 36 11 51.8 27.51 1.083
18:52 1018 30.06 847 25.01 27 80.6 37 11.3 52.3 27.39 1.078
18:53 1018 30.06 847 25.01 26.9 80.3 36 10.9 51.7 27.25 1.073
18:54 1018 30.06 847 25.01 26.8 80.3 37 11.2 52.2 27.17 1.07
18:55 1018 30.06 847 25.01 26.9 80.3 35 10.2 50.4 27.26 1.073
18:56 1018 30.06 847 25.01 27 80.6 34 10.1 50.3 27.38 1.078
18:57 1018 30.06 847 25.01 27.2 80.9 35 10.4 50.8 27.49 1.082
18:58 1018 30.06 847 25.01 27.2 80.9 35 10.8 51.4 27.39 1.078
18:59 1018 30.06 847 25.01 27.1 80.7 37 11.2 52.2 27.33 1.076
19:00 1018 30.06 847 25.01 27 80.5 35 10.6 51.1 27.26 1.073
19:01 1018 30.06 847 25.01 27 80.5 37 11.1 52 27.28 1.074
19:02 1018 30.06 847 25.01 26.9 80.5 36 10.9 51.5 27.23 1.072
19:03 1018 30.06 847 25.01 26.9 80.4 37 11.4 52.5 27.18 1.07
19:04 1018 30.06 847 25.01 26.8 80.3 37 11.2 52.2 27.1 1.067
19:05 1018 30.06 847 25.01 26.7 80.1 37 11 51.8 26.99 1.063
19:06 1018 30.06 847 25.01 26.7 80 37 10.9 51.6 26.95 1.061
19:07 1018 30.06 847 25.01 26.7 80 37 11.2 52.1 26.97 1.062
19:08 1018 30.06 847 25.01 26.6 79.9 37 11 51.9 26.93 1.06
19:09 1018 30.06 847 25.01 26.6 80 38 11.3 52.3 26.97 1.062
19:10 1018 30.06 847 25.01 26.6 79.9 36 10.8 51.4 26.95 1.061
19:11 1018 30.06 847 25.01 26.6 79.9 37 11.1 52.1 26.96 1.061
19:12 1018 30.06 847 25.01 26.6 79.8 38 11.2 52.1 26.87 1.058
19:13 1018 30.06 847 25.01 26.5 79.8 37 10.9 51.6 26.88 1.058
19:14 1018 30.06 847 25.01 26.6 79.9 38 11.3 52.4 26.9 1.059
19:15 1018 30.06 847 25.01 26.5 79.8 37 11.1 52 26.83 1.056
19:16 1018 30.06 847 25.01 26.5 79.7 36 10.6 51.1 26.89 1.059
19:17 1018 30.06 847 25.01 26.6 79.9 38 11.2 52.2 26.99 1.063
19:18 1018 30.06 847 25.01 26.6 79.9 36 10.4 50.8 27 1.063
19:19 1018 30.06 847 25.01 26.6 79.9 37 11 51.8 26.97 1.062
19:20 1018 30.06 847 25.01 26.6 79.9 37 11.1 52 26.93 1.06
19:21 1018 30.06 847 25.01 26.5 79.7 37 10.9 51.7 26.83 1.056
19:22 1018 30.06 847 25.01 26.5 79.6 38 11.3 52.3 26.76 1.054
19:23 1018 30.06 847 25.01 26.3 79.4 41 12.1 53.8 26.64 1.049
19:24 1018 30.06 847 25.01 26.1 79 39 11.4 52.6 26.45 1.041
19:25 1018 30.06 847 25.01 25.9 78.6 40 11.5 52.8 26.3 1.035
19:26 1018 30.06 847 25.01 25.8 78.4 42 12.2 53.9 26.16 1.03
19:27 1018 30.06 847 25.01 25.7 78.3 42 12.2 53.9 26.03 1.025
19:28 1018 30.06 847 25.01 25.5 77.9 43 12.3 54.1 25.86 1.018
19:29 1018 30.06 847 25.01 25.4 77.6 42 11.7 53 25.74 1.013
19:30 1018 30.06 847 25.01 25.3 77.6 41 11.3 52.3 25.67 1.011
19:31 1018 30.06 847 25.01 25.3 77.5 41 11.3 52.4 25.63 1.009
19:32 1018 30.06 847 25.01 25.2 77.4 44 12.2 53.9 25.53 1.005
19:33 1018 30.06 847 25.01 25 77 43 11.8 53.2 25.39 1
19:34 1018 30.06 848 25.04 24.9 76.8 45 12.2 54 25.29 0.996
19:35 1018 30.06 848 25.04 24.8 76.6 44 11.9 53.4 25.15 0.99
19:36 1018 30.06 848 25.04 24.5 76.1 47 12.5 54.5 24.94 0.982
19:37 1019 30.09 848 25.04 24.2 75.6 49 12.9 55.2 24.68 0.972
19:38 1019 30.09 848 25.04 23.9 75.1 50 13 55.4 24.37 0.959
19:39 1019 30.09 848 25.04 23.8 74.8 51 13.3 56 24.18 0.952
19:40 1019 30.09 848 25.04 23.6 74.5 48 12.2 53.9 23.98 0.944
19:41 1019 30.09 848 25.04 24 75.3 41 10.1 50.2 24.24 0.954
19:42 1019 30.09 848 25.04 24.8 76.6 41 10.7 51.3 24.99 0.984
19:43 1019 30.09 848 25.04 25 77 41 11 51.8 25.27 0.995
19:44 1019 30.09 848 25.04 25.1 77.1 40 10.7 51.3 25.38 0.999
19:45 1019 30.09 848 25.04 25.1 77.2 39 10.5 51 25.42 1.001
19:46 1019 30.09 848 25.04 25.1 77.2 37 9.5 49 25.42 1.001
19:47 1019 30.09 848 25.04 25.3 77.6 40 11.1 52 25.54 1.006
19:48 1019 30.09 848 25.04 25.3 77.6 40 11 51.9 25.56 1.006
19:49 1019 30.09 848 25.04 25.3 77.5 43 12.1 53.8 25.56 1.006
19:50 1019 30.09 848 25.04 25 77 45 12.4 54.4 25.37 0.999
19:51 1019 30.09 848 25.04 24.6 76.3 48 13.2 55.7 25.08 0.987
19:52 1019 30.09 848 25.04 24.2 75.6 49 13 55.4 24.7 0.972
19:53 1019 30.09 848 25.04 23.9 75 49 12.6 54.7 24.3 0.957
19:54 1019 30.09 848 25.04 23.7 74.7 48 12.1 53.8 24.11 0.949
19:55 1019 30.09 848 25.04 23.7 74.7 45 11.4 52.5 24.03 0.946
19:56 1019 30.09 848 25.04 23.9 75 44 11.1 52 24.2 0.953
19:57 1019 30.09 848 25.04 24.2 75.5 43 10.9 51.6 24.44 0.962
19:58 1019 30.09 848 25.04 24.3 75.8 44 11.4 52.5 24.65 0.97
19:59 1019 30.09 848 25.04 24.5 76 40 10.1 50.2 24.73 0.974
20:00 1019 30.09 848 25.04 24.8 76.6 38 9.9 49.8 25 0.984
20:01 1019 30.09 848 25.04 25 77 36 9.3 48.8 25.3 0.996
20:02 1019 30.09 848 25.04 25.1 77.2 33 8 46.3 25.39 1
20:03 1019 30.09 848 25.04 25.2 77.4 35 8.7 47.7 25.52 1.005
20:04 1019 30.09 848 25.04 25.1 77.3 36 9.3 48.8 25.47 1.003
20:05 1019 30.09 848 25.04 25 77 37 9.5 49.1 25.38 0.999
20:06 1019 30.09 848 25.04 24.8 76.6 38 9.8 49.7 25.18 0.991
20:07 1019 30.09 848 25.04 24.7 76.4 39 9.9 49.8 25.04 0.986
20:08 1019 30.09 848 25.04 24.6 76.2 38 9.5 49.1 24.95 0.982
20:09 1019 30.09 848 25.04 24.4 76 39 10 49.9 24.83 0.978
20:10 1019 30.09 848 25.04 24.3 75.7 40 9.9 49.8 24.65 0.97
20:11 1019 30.09 848 25.04 24 75.3 40 9.9 49.9 24.48 0.964
20:12 1019 30.09 848 25.04 24 75.1 39 9.5 49.1 24.36 0.959
20:13 1019 30.09 849 25.07 23.9 75 40 9.6 49.3 24.28 0.956
20:14 1019 30.09 849 25.07 23.8 74.8 38 8.8 47.8 24.13 0.95
20:15 1019 30.09 849 25.07 23.8 74.8 36 8 46.5 24.13 0.95
20:16 1019 30.09 849 25.07 24 75.2 32 6.5 43.8 24.26 0.955
20:17 1019 30.09 849 25.07 24.4 75.9 31 6.5 43.8 24.65 0.97
20:18 1020 30.12 849 25.07 24.6 76.3 31 6.8 44.3 24.9 0.98
20:19 1020 30.12 849 25.07 24.8 76.6 31 6.7 44 25.08 0.987
20:20 1020 30.12 849 25.07 25 77 30 6.7 44 25.33 0.997
20:21 1020 30.12 849 25.07 25.1 77.1 31 7 44.5 25.35 0.998
20:22 1020 30.12 849 25.07 25 77 31 7.1 44.8 25.37 0.999
20:23 1020 30.12 849 25.07 24.9 76.9 31 6.7 44 25.29 0.996
20:24 1020 30.12 849 25.07 24.9 76.9 31 6.9 44.4 25.27 0.995
20:25 1020 30.12 849 25.07 25 76.9 28 5.6 42 25.28 0.995
20:26 1020 30.12 849 25.07 25.2 77.3 27 5.2 41.4 25.48 1.003
20:27 1020 30.12 849 25.07 25.5 78 27 5.3 41.6 25.86 1.018
20:28 1020 30.12 849 25.07 25.7 78.3 27 5.7 42.2 26.02 1.024
20:29 1020 30.12 849 25.07 25.9 78.6 26 5.4 41.7 26.21 1.032
20:30 1020 30.12 849 25.07 26 78.9 27 5.9 42.6 26.37 1.038
20:31 1020 30.12 849 25.07 26 78.8 27 5.9 42.6 26.34 1.037
20:32 1020 30.12 849 25.07 26 78.7 27 5.9 42.7 26.3 1.035
20:33 1020 30.12 849 25.07 25.8 78.5 27 5.8 42.4 26.2 1.031
20:34 1020 30.12 849 25.07 25.7 78.3 28 5.9 42.6 26.08 1.027
20:35 1020 30.12 849 25.07 25.7 78.2 26 4.9 40.9 26.01 1.024
20:36 1020 30.12 849 25.07 25.8 78.4 27 5.7 42.3 26.1 1.028
20:37 1020 30.12 849 25.07 25.8 78.4 27 5.5 41.8 26.13 1.029
20:38 1020 30.12 849 25.07 25.8 78.4 27 5.7 42.3 26.09 1.027
20:39 1020 30.12 849 25.07 25.7 78.2 28 5.9 42.7 26.03 1.025
20:40 1020 30.12 849 25.07 25.6 78.2 27 5.3 41.5 25.97 1.022
20:41 1020 30.12 849 25.07 25.8 78.4 27 5.5 41.8 26.1 1.028
20:42 1020 30.12 849 25.07 25.8 78.5 26 5.4 41.7 26.17 1.03
20:43 1020 30.12 849 25.07 25.8 78.5 26 5.4 41.7 26.17 1.03
20:44 1020 30.12 849 25.07 25.8 78.4 28 6 42.8 26.1 1.028
20:45 1020 30.12 849 25.07 25.7 78.2 27 5.6 42.1 25.99 1.023
20:46 1020 30.12 849 25.07 25.6 78 28 5.9 42.6 25.92 1.02
20:47 1020 30.12 849 25.07 25.4 77.7 27 5.2 41.3 25.74 1.013
20:48 1020 30.12 849 25.07 25.5 77.8 27 5.2 41.3 25.81 1.016
20:49 1020 30.12 849 25.07 25.6 78 27 5.4 41.7 25.92 1.02
20:50 1020 30.12 849 25.07 25.5 78 27 5.4 41.7 25.9 1.02
20:51 1020 30.12 849 25.07 25.4 77.8 28 5.6 42.1 25.76 1.014
20:52 1020 30.12 849 25.07 25.3 77.5 28 5.5 41.9 25.63 1.009
20:53 1020 30.12 849 25.07 25.3 77.5 28 5.6 42.2 25.61 1.008
20:54 1020 30.12 849 25.07 25.2 77.3 28 5.6 42.1 25.47 1.003
20:55 1020 30.12 849 25.07 25.1 77.1 29 5.9 42.6 25.41 1
20:56 1020 30.12 849 25.07 24.9 76.7 30 6.3 43.4 25.24 0.994
20:57 1020 30.12 849 25.07 24.6 76.3 30 6.1 43 24.93 0.981
20:58 1020 30.12 849 25.07 24.4 75.9 31 6.4 43.6 24.69 0.972
20:59 1020 30.12 849 25.07 24.2 75.6 30 5.9 42.7 24.51 0.965
21:00 1020 30.12 849 25.07 24.1 75.3 30 5.8 42.5 24.4 0.961
21:01 1020 30.12 849 25.07 24 75.1 30 5.6 42.1 24.28 0.956
21:02 1020 30.12 849 25.07 23.9 75 30 5.6 42 24.23 0.954
21:03 1020 30.12 849 25.07 23.9 75.1 29 5.1 41.2 24.32 0.957
21:04 1020 30.12 849 25.07 24.1 75.4 30 5.6 42 24.48 0.964
21:05 1020 30.12 849 25.07 24.1 75.5 31 6.2 43.1 24.49 0.964
21:06 1020 30.12 849 25.07 24 75.3 30 5.6 42 24.34 0.958
21:07 1020 30.12 849 25.07 23.9 75.1 30 5.7 42.2 24.25 0.955
21:08 1020 30.12 849 25.07 23.9 75 29 5 41 24.17 0.952
21:09 1020 30.12 849 25.07 23.9 75 29 4.9 40.8 24.16 0.951
21:10 1020 30.12 849 25.07 24 75.2 29 4.9 40.9 24.23 0.954
21:11 1020 30.12 849 25.07 24 75.2 29 4.9 40.9 24.27 0.956
21:12 1020 30.12 849 25.07 24.1 75.4 28 4.7 40.4 24.44 0.962
21:13 1020 30.12 849 25.07 24.3 75.7 28 4.9 40.7 24.7 0.972
21:14 1020 30.12 849 25.07 24.4 76 27 4.4 39.9 24.84 0.978
21:15 1020 30.12 849 25.07 24.6 76.4 27 4.7 40.5 25.04 0.986
21:16 1020 30.12 849 25.07 24.9 76.7 27 4.7 40.4 25.32 0.997
21:17 1020 30.12 849 25.07 25.1 77.1 27 5.2 41.4 25.49 1.004
21:18 1020 30.12 849 25.07 25.2 77.4 26 4.5 40.1 25.58 1.007
21:19 1020 30.12 849 25.07 25.4 77.7 27 5.6 42 25.74 1.013
21:20 1020 30.12 849 25.07 25.3 77.5 29 6.2 43.2 25.46 1.002
21:21 1020 30.12 849 25.07 25 77 27 5.2 41.3 25.13 0.989
21:22 1020 30.12 849 25.07 24.8 76.7 27 4.8 40.6 25.16 0.991
21:23 1020 30.12 849 25.07 25 77 26 4.3 39.7 25.46 1.002
21:24 1020 30.12 849 25.07 25.2 77.4 28 5.5 41.9 25.62 1.009
21:25 1020 30.12 849 25.07 25.1 77.1 27 4.8 40.7 25.3 0.996
21:26 1019 30.09 849 25.07 25 77 27 5.1 41.2 25.39 1
21:27 1019 30.09 849 25.07 25 77 28 5.6 42.1 25.26 0.994
21:28 1019 30.09 849 25.07 24.8 76.6 28 5.4 41.7 25.02 0.985
21:29 1019 30.09 849 25.07 24.7 76.5 29 5.6 42.1 24.94 0.982
21:30 1019 30.09 849 25.07 24.5 76.1 29 5.6 42 24.73 0.974
21:31 1019 30.09 849 25.07 24.3 75.7 30 5.8 42.5 24.52 0.965
21:32 1020 30.12 849 25.07 24 75.2 30 5.6 42.1 24.26 0.955
21:33 1020 30.12 849 25.07 23.8 74.9 31 6.1 42.9 24.07 0.948
21:34 1020 30.12 849 25.07 23.6 74.5 31 5.9 42.6 23.91 0.941
21:35 1019 30.09 849 25.07 23.5 74.3 32 5.9 42.5 23.79 0.937
21:36 1019 30.09 849 25.07 23.3 73.9 32 5.7 42.3 23.55 0.927
21:37 1019 30.09 849 25.07 23.1 73.6 32 5.7 42.2 23.45 0.923
21:38 1019 30.09 849 25.07 23.1 73.6 31 5.5 41.9 23.42 0.922
21:39 1019 30.09 849 25.07 23.1 73.6 33 6.2 43.2 23.35 0.919
21:40 1019 30.09 849 25.07 22.7 72.8 34 6.1 42.9 22.87 0.9
21:41 1019 30.09 849 25.07 22.5 72.5 33 5.8 42.5 22.69 0.893
21:42 1019 30.09 849 25.07 22.5 72.6 34 6.1 43 22.7 0.894
21:43 1019 30.09 849 25.07 22.3 72.1 38 7.4 45.3 22.45 0.884
21:44 1019 30.09 849 25.07 21.7 71.1 37 6.7 44.1 21.96 0.865
21:45 1019 30.09 849 25.07 21.7 71.1 36 6 42.9 21.94 0.864
21:46 1019 30.09 849 25.07 21.9 71.5 36 6.2 43.2 22.13 0.871
21:47 1019 30.09 849 25.07 22.1 71.7 36 6.4 43.6 22.25 0.876
21:48 1019 30.09 849 25.07 22 71.6 30 3.9 39 22.26 0.876
21:49 1019 30.09 849 25.07 22.3 72.1 36 6.6 43.9 22.58 0.889
21:50 1019 30.09 849 25.07 21.9 71.3 39 7.5 45.4 22.09 0.87
21:51 1019 30.09 848 25.04 21.3 70.4 39 6.9 44.3 21.55 0.848
21:52 1019 30.09 848 25.04 21.3 70.3 38 6.4 43.6 21.44 0.844
21:53 1019 30.09 848 25.04 21.4 70.5 39 7 44.6 21.56 0.849
21:54 1019 30.09 848 25.04 21.1 70 41 7.6 45.8 21.29 0.838
21:55 1019 30.09 848 25.04 20.6 69 42 7.2 45 20.86 0.821
21:56 1019 30.09 848 25.04 20.5 68.8 44 7.9 46.2 20.67 0.814
21:57 1019 30.09 848 25.04 20.1 68.1 44 7.7 45.8 20.35 0.801
21:58 1019 30.09 848 25.04 19.8 67.6 45 7.6 45.6 20.07 0.79
21:59 1019 30.09 848 25.04 19.7 67.4 43 7 44.5 19.95 0.785
22:00 1019 30.09 848 25.04 19.8 67.6 44 7.3 45.1 19.97 0.786
22:01 1019 30.09 848 25.04 19.7 67.4 46 7.8 46 19.88 0.783
22:02 1019 30.09 848 25.04 19.5 67.1 45 7.5 45.6 19.74 0.777
22:03 1019 30.09 848 25.04 19.4 67 44 7 44.7 19.68 0.775
22:04 1019 30.09 848 25.04 19.5 67.1 46 7.6 45.6 19.76 0.778
22:05 1019 30.09 848 25.04 19.5 67.1 44 7.2 45 19.77 0.778
22:06 1019 30.09 848 25.04 19.5 67.1 44 7.1 44.8 19.74 0.777
22:07 1019 30.09 848 25.04 19.5 67.2 43 6.7 44.1 19.79 0.779
22:08 1019 30.09 848 25.04 19.7 67.5 42 6.6 44 19.94 0.785
22:09 1019 30.09 848 25.04 19.9 67.8 41 6.3 43.3 20.09 0.791
22:10 1019 30.09 848 25.04 20.1 68.2 44 7.5 45.5 20.27 0.798
22:11 1019 30.09 848 25.04 19.8 67.7 45 7.8 46 20.06 0.79
22:12 1019 30.09 848 25.04 19.5 67.1 46 7.6 45.6 19.76 0.778
22:13 1019 30.09 848 25.04 19.4 66.9 44 7 44.7 19.68 0.775
22:14 1019 30.09 848 25.04 19.6 67.2 45 7.5 45.5 19.74 0.777
22:15 1019 30.09 848 25.04 19.5 67.2 46 7.8 46 19.76 0.778
22:16 1019 30.09 848 25.04 19.3 66.8 47 7.8 46.1 19.65 0.774
22:17 1019 30.09 848 25.04 19.2 66.5 48 7.9 46.3 19.47 0.767
22:18 1019 30.09 848 25.04 19 66.2 47 7.5 45.4 19.3 0.76
22:19 1019 30.09 848 25.04 18.9 66 49 8 46.4 19.25 0.758
22:20 1019 30.09 848 25.04 18.7 65.7 49 8.1 46.5 19.11 0.752
22:21 1019 30.09 848 25.04 18.6 65.4 49 7.8 46 18.96 0.746
22:22 1019 30.09 848 25.04 18.6 65.5 47 7.1 44.7 18.92 0.745
22:23 1019 30.09 848 25.04 18.9 66.1 46 7.1 44.8 19.13 0.753
22:24 1019 30.09 848 25.04 19.3 66.7 44 6.9 44.5 19.47 0.767
22:25 1019 30.09 848 25.04 19.5 67.2 43 6.9 44.4 19.75 0.778
22:26 1019 30.09 848 25.04 19.7 67.4 44 7.3 45.1 19.89 0.783
22:27 1019 30.09 848 25.04 19.6 67.3 45 7.6 45.7 19.86 0.782
22:28 1019 30.09 848 25.04 19.6 67.2 45 7.6 45.7 19.82 0.78
22:29 1019 30.09 848 25.04 19.6 67.2 44 7.2 45 19.84 0.781
22:30 1019 30.09 848 25.04 19.7 67.5 45 7.5 45.6 19.96 0.786
22:31 1019 30.09 848 25.04 19.7 67.5 45 7.7 45.8 19.95 0.785
22:32 1019 30.09 848 25.04 19.6 67.4 46 7.8 46 19.89 0.783
22:33 1019 30.09 848 25.04 19.6 67.2 46 7.7 45.9 19.84 0.781
22:34 1019 30.09 848 25.04 19.6 67.3 44 7.3 45.2 19.88 0.783
22:35 1019 30.09 848 25.04 19.8 67.6 43 7 44.6 20.14 0.793
22:36 1019 30.09 848 25.04 20 68.1 43 7.1 44.9 20.39 0.803
22:37 1019 30.09 848 25.04 20.3 68.5 42 7.2 44.9 20.61 0.811
22:38 1019 30.09 848 25.04 20.4 68.8 42 7.2 45 20.79 0.819
22:39 1019 30.09 848 25.04 20.6 69.1 42 7.3 45.2 20.96 0.825
22:40 1019 30.09 848 25.04 20.7 69.3 41 7.1 44.8 21.04 0.828
22:41 1019 30.09 848 25.04 20.8 69.5 41 7.1 44.8 21.17 0.833
22:42 1019 30.09 848 25.04 20.9 69.7 40 7.1 44.7 21.28 0.838
22:43 1019 30.09 848 25.04 21.1 69.9 40 7 44.7 21.42 0.843
22:44 1019 30.09 848 25.04 21.2 70.1 39 7 44.6 21.56 0.849
22:45 1019 30.09 848 25.04 21.3 70.4 39 6.9 44.5 21.69 0.854
22:46 1019 30.09 848 25.04 21.5 70.6 39 7 44.6 21.83 0.859
22:47 1019 30.09 848 25.04 21.5 70.8 40 7.4 45.3 21.84 0.86
22:48 1019 30.09 848 25.04 21.4 70.5 41 7.7 45.8 21.75 0.856
22:49 1019 30.09 848 25.04 21.1 70 41 7.7 45.8 21.49 0.846
22:50 1019 30.09 848 25.04 20.9 69.6 43 8.1 46.6 21.32 0.839
22:51 1019 30.09 848 25.04 20.6 69 43 7.6 45.6 21.02 0.828
22:52 1019 30.09 848 25.04 20.5 69 42 7.2 45 21.01 0.827
22:53 1019 30.09 848 25.04 20.8 69.4 41 7.1 44.8 21.15 0.833
22:54 1019 30.09 848 25.04 21 69.8 41 7.2 45 21.27 0.837
22:55 1019 30.09 848 25.04 21.1 69.9 40 7.1 44.8 21.32 0.839
22:56 1019 30.09 848 25.04 21.2 70.1 39 6.8 44.2 21.4 0.843
22:57 1019 30.09 848 25.04 21.4 70.5 41 7.7 45.8 21.57 0.849
22:58 1019 30.09 849 25.07 21.3 70.4 44 8.8 47.8 21.39 0.842
22:59 1019 30.09 849 25.07 20.8 69.5 46 9 48.2 20.87 0.822
23:00 1019 30.09 849 25.07 20.1 68.1 50 9.3 48.8 20.32 0.8
23:01 1019 30.09 848 25.04 19.3 66.7 50 8.8 47.8 19.7 0.776
23:02 1019 30.09 848 25.04 18.9 66 50 8.5 47.2 19.26 0.758
23:03 1019 30.09 848 25.04 18.6 65.5 52 8.8 47.8 18.95 0.746
23:04 1019 30.09 848 25.04 18.3 64.9 52 8.3 47 18.65 0.734
23:05 1019 30.09 848 25.04 18.2 64.7 53 8.5 47.3 18.52 0.729
23:06 1019 30.09 848 25.04 18.1 64.6 53 8.6 47.5 18.43 0.726
23:07 1019 30.09 848 25.04 18 64.4 54 8.8 47.8 18.37 0.723
23:08 1019 30.09 849 25.07 17.9 64.1 56 9.1 48.4 18.23 0.718
23:09 1019 30.09 849 25.07 17.6 63.7 59 9.5 49.1 17.99 0.708
23:10 1019 30.09 849 25.07 17.1 62.9 61 9.6 49.3 17.47 0.688
23:11 1019 30.09 849 25.07 16.7 62 62 9.4 48.9 17.03 0.67
23:12 1020 30.12 849 25.07 16.4 61.5 63 9.3 48.8 16.77 0.66
23:13 1019 30.09 849 25.07 16.2 61.1 63 9.2 48.6 16.51 0.65
23:14 1020 30.12 849 25.07 16.1 61 62 9 48.2 16.43 0.647
23:15 1020 30.12 849 25.07 16.1 61 64 9.3 48.8 16.44 0.647
23:16 1020 30.12 849 25.07 16 60.8 63 9.1 48.4 16.34 0.643
23:17 1020 30.12 849 25.07 16 60.8 63 9.1 48.4 16.3 0.642
23:18 1020 30.12 849 25.07 15.9 60.7 63 9 48.2 16.28 0.641
23:19 1020 30.12 849 25.07 16 60.7 63 9 48.2 16.26 0.64
23:20 1020 30.12 849 25.07 15.9 60.5 64 9.2 48.6 16.2 0.638
23:21 1020 30.12 849 25.07 15.7 60.3 66 9.4 48.9 16.02 0.631
23:22 1020 30.12 849 25.07 15.5 60 66 9.2 48.6 15.85 0.624
23:23 1020 30.12 849 25.07 15.5 60 66 9.2 48.6 15.85 0.624
23:24 1020 30.12 849 25.07 15.5 60 66 9.3 48.7 15.87 0.625
23:25 1020 30.12 849 25.07 15.6 60.1 65 9.1 48.4 15.94 0.628
23:26 1020 30.12 849 25.07 15.8 60.4 64 9.1 48.3 16.09 0.633
23:27 1020 30.12 849 25.07 16 60.8 64 9.3 48.7 16.28 0.641
23:28 1020 30.12 849 25.07 16 60.8 65 9.4 49 16.34 0.643
23:29 1020 30.12 849 25.07 15.9 60.5 66 9.5 49.1 16.2 0.638
23:30 1020 30.12 849 25.07 15.7 60.2 66 9.4 49 16.07 0.633
23:31 1020 30.12 849 25.07 15.5 59.9 67 9.5 49.1 15.89 0.626
23:32 1020 30.12 849 25.07 15.3 59.5 69 9.6 49.3 15.65 0.616
23:33 1020 30.12 849 25.07 15.1 59.2 69 9.5 49.2 15.48 0.609
23:34 1020 30.12 849 25.07 15 59 70 9.6 49.2 15.39 0.606
23:35 1020 30.12 849 25.07 15 59 69 9.4 49 15.39 0.606
23:36 1020 30.12 849 25.07 15.1 59.1 68 9.3 48.8 15.39 0.606
23:37 1020 30.12 849 25.07 15.3 59.5 67 9.1 48.5 15.6 0.614
23:38 1020 30.12 849 25.07 15.6 60.1 65 9.1 48.4 15.89 0.626
23:39 1020 30.12 849 25.07 15.9 60.6 65 9.3 48.7 16.12 0.635
23:40 1020 30.12 849 25.07 16.1 61 64 9.3 48.8 16.29 0.641
23:41 1020 30.12 849 25.07 16.2 61.2 62 9.1 48.4 16.5 0.65
23:42 1020 30.12 849 25.07 16.5 61.7 61 9.1 48.3 16.71 0.658
23:43 1020 30.12 849 25.07 16.7 62.1 61 9.3 48.7 16.89 0.665
23:44 1020 30.12 849 25.07 16.8 62.2 62 9.5 49.1 17.02 0.67
23:45 1020 30.12 849 25.07 16.7 62.1 62 9.5 49 17.03 0.67
23:46 1020 30.12 849 25.07 16.7 62.1 60 8.9 48.1 16.99 0.669
23:47 1020 30.12 849 25.07 16.9 62.4 58 8.7 47.6 17.08 0.672
23:48 1020 30.12 849 25.07 17.2 63 57 8.7 47.7 17.31 0.681
23:49 1020 30.12 849 25.07 17.5 63.5 57 9 48.1 17.64 0.694
23:50 1020 30.12 849 25.07 17.7 63.9 56 8.9 48.1 17.91 0.705
23:51 1020 30.12 849 25.07 17.8 64.1 54 8.6 47.4 18.02 0.709
23:52 1020 30.12 849 25.07 18 64.4 55 8.9 48 18.2 0.717
23:53 1020 30.12 849 25.07 18.2 64.8 51 8.1 46.6 18.46 0.727
23:54 1020 30.12 849 25.07 18.5 65.3 50 8 46.4 18.69 0.736
23:55 1020 30.12 849 25.07 18.6 65.5 46 6.9 44.4 18.85 0.742
23:56 1020 30.12 850 25.1 19 66.2 52 9.2 48.6 19.23 0.757
23:57 1020 30.12 850 25.1 18.9 65.9 52 8.9 48 19.16 0.754
23:58 1020 30.12 850 25.1 18.7 65.7 54 9.2 48.6 18.98 0.747
23:59 1020 30.12 850 25.1 18.5 65.3 53 8.9 48.1 18.84 0.742
24:00 1020 30.12 850 25.1 18.5 65.3 54 9 48.2 18.81 0.741